<?xml version="1.0" encoding="UTF-8" standalone="no" ?>
<gpx xmlns="http://www.topografix.com/GPX/1/1" xmlns:xsi="http://www.w3.org/2001/XMLSchema-instance" xsi:schemaLocation="http://www.topografix.com/GPX/1/1 http://www.topografix.com/GPX/1/1/gpx.xsd" version="1.1" creator="VisuGPX - https://www.visugpx.com">
  <metadata>
    <name>samuscup201604</name>
    <desc><![CDATA[dernier jour de nav
avec Michel Paillot
26 mai
Garches 01 Elan 45]]></desc>
  </metadata>
  <trk>
    <name><![CDATA[Tracé actuel: 24 MAI 2016 15:42]]></name>
    <trkseg>
  </trk>
  <trk>
    <name><![CDATA[Tracé actuel: 25 MAI 2016 11:46]]></name>
    <trkseg>
  </trk>
  <trk>
    <name><![CDATA[Tracé actuel: 26 MAI 2016 11:48]]></name>
    <trkseg>
      <trkpt lat="43.12592" lon="5.72748">
        <ele>-39.76</ele>
        <time>2016-05-26T09:48:43Z</time>
      </trkpt>
      <trkpt lat="43.1257" lon="5.72745">
        <ele>-22.93</ele>
        <time>2016-05-26T09:48:59Z</time>
      </trkpt>
      <trkpt lat="43.12568" lon="5.72745">
        <ele>-22.45</ele>
        <time>2016-05-26T09:49:00Z</time>
      </trkpt>
      <trkpt lat="43.12552" lon="5.72731">
        <ele>-8.51</ele>
        <time>2016-05-26T09:49:14Z</time>
      </trkpt>
      <trkpt lat="43.12515" lon="5.72721">
        <ele>-4.19</ele>
        <time>2016-05-26T09:49:33Z</time>
      </trkpt>
      <trkpt lat="43.12468" lon="5.72702">
        <ele>-1.79</ele>
        <time>2016-05-26T09:49:54Z</time>
      </trkpt>
      <trkpt lat="43.12422" lon="5.72681">
        <ele>-0.34</ele>
        <time>2016-05-26T09:50:12Z</time>
      </trkpt>
      <trkpt lat="43.12386" lon="5.72665">
        <ele>-0.34</ele>
        <time>2016-05-26T09:50:26Z</time>
      </trkpt>
      <trkpt lat="43.12343" lon="5.72645">
        <ele>0.14</ele>
        <time>2016-05-26T09:50:43Z</time>
      </trkpt>
      <trkpt lat="43.12294" lon="5.72627">
        <ele>-0.34</ele>
        <time>2016-05-26T09:51:02Z</time>
      </trkpt>
      <trkpt lat="43.12255" lon="5.72611">
        <ele>-1.3</ele>
        <time>2016-05-26T09:51:17Z</time>
      </trkpt>
      <trkpt lat="43.12213" lon="5.72597">
        <ele>-0.82</ele>
        <time>2016-05-26T09:51:33Z</time>
      </trkpt>
      <trkpt lat="43.12166" lon="5.72585">
        <ele>0.14</ele>
        <time>2016-05-26T09:51:51Z</time>
      </trkpt>
      <trkpt lat="43.12115" lon="5.72572">
        <ele>0.14</ele>
        <time>2016-05-26T09:52:12Z</time>
      </trkpt>
      <trkpt lat="43.12073" lon="5.72563">
        <ele>-0.82</ele>
        <time>2016-05-26T09:52:29Z</time>
      </trkpt>
      <trkpt lat="43.12037" lon="5.72553">
        <ele>-1.79</ele>
        <time>2016-05-26T09:52:45Z</time>
      </trkpt>
      <trkpt lat="43.11998" lon="5.72539">
        <ele>0.14</ele>
        <time>2016-05-26T09:53:00Z</time>
      </trkpt>
      <trkpt lat="43.1196" lon="5.72527">
        <ele>0.14</ele>
        <time>2016-05-26T09:53:15Z</time>
      </trkpt>
      <trkpt lat="43.11931" lon="5.72521">
        <ele>0.62</ele>
        <time>2016-05-26T09:53:26Z</time>
      </trkpt>
      <trkpt lat="43.11896" lon="5.72514">
        <ele>0.14</ele>
        <time>2016-05-26T09:53:39Z</time>
      </trkpt>
      <trkpt lat="43.11855" lon="5.72501">
        <ele>-0.34</ele>
        <time>2016-05-26T09:53:55Z</time>
      </trkpt>
      <trkpt lat="43.11814" lon="5.72485">
        <ele>0.14</ele>
        <time>2016-05-26T09:54:12Z</time>
      </trkpt>
      <trkpt lat="43.11775" lon="5.72466">
        <ele>0.14</ele>
        <time>2016-05-26T09:54:28Z</time>
      </trkpt>
      <trkpt lat="43.11728" lon="5.72439">
        <ele>0.14</ele>
        <time>2016-05-26T09:54:46Z</time>
      </trkpt>
      <trkpt lat="43.1168" lon="5.72423">
        <ele>0.14</ele>
        <time>2016-05-26T09:55:05Z</time>
      </trkpt>
      <trkpt lat="43.11647" lon="5.72409">
        <ele>-0.82</ele>
        <time>2016-05-26T09:55:19Z</time>
      </trkpt>
      <trkpt lat="43.11613" lon="5.72399">
        <ele>-1.3</ele>
        <time>2016-05-26T09:55:33Z</time>
      </trkpt>
      <trkpt lat="43.1161" lon="5.72421">
        <ele>-0.82</ele>
        <time>2016-05-26T09:55:45Z</time>
      </trkpt>
      <trkpt lat="43.11616" lon="5.72454">
        <ele>-0.34</ele>
        <time>2016-05-26T09:56:01Z</time>
      </trkpt>
      <trkpt lat="43.11619" lon="5.72493">
        <ele>0.14</ele>
        <time>2016-05-26T09:56:17Z</time>
      </trkpt>
      <trkpt lat="43.11614" lon="5.7254">
        <ele>0.14</ele>
        <time>2016-05-26T09:56:36Z</time>
      </trkpt>
      <trkpt lat="43.11607" lon="5.72583">
        <ele>-0.34</ele>
        <time>2016-05-26T09:56:53Z</time>
      </trkpt>
      <trkpt lat="43.11603" lon="5.72621">
        <ele>-0.34</ele>
        <time>2016-05-26T09:57:08Z</time>
      </trkpt>
      <trkpt lat="43.11599" lon="5.72675">
        <ele>0.62</ele>
        <time>2016-05-26T09:57:28Z</time>
      </trkpt>
      <trkpt lat="43.11599" lon="5.72722">
        <ele>0.62</ele>
        <time>2016-05-26T09:57:43Z</time>
      </trkpt>
      <trkpt lat="43.11599" lon="5.72777">
        <ele>1.1</ele>
        <time>2016-05-26T09:57:59Z</time>
      </trkpt>
      <trkpt lat="43.11599" lon="5.72834">
        <ele>1.1</ele>
        <time>2016-05-26T09:58:14Z</time>
      </trkpt>
      <trkpt lat="43.11592" lon="5.72902">
        <ele>1.1</ele>
        <time>2016-05-26T09:58:33Z</time>
      </trkpt>
      <trkpt lat="43.11588" lon="5.72955">
        <ele>1.1</ele>
        <time>2016-05-26T09:58:48Z</time>
      </trkpt>
      <trkpt lat="43.11579" lon="5.73027">
        <ele>0.62</ele>
        <time>2016-05-26T09:59:09Z</time>
      </trkpt>
      <trkpt lat="43.11573" lon="5.73085">
        <ele>1.1</ele>
        <time>2016-05-26T09:59:26Z</time>
      </trkpt>
      <trkpt lat="43.11567" lon="5.73145">
        <ele>1.1</ele>
        <time>2016-05-26T09:59:44Z</time>
      </trkpt>
      <trkpt lat="43.11563" lon="5.73196">
        <ele>0.62</ele>
        <time>2016-05-26T09:59:59Z</time>
      </trkpt>
      <trkpt lat="43.11556" lon="5.73266">
        <ele>0.62</ele>
        <time>2016-05-26T10:00:20Z</time>
      </trkpt>
      <trkpt lat="43.11551" lon="5.73314">
        <ele>1.1</ele>
        <time>2016-05-26T10:00:35Z</time>
      </trkpt>
      <trkpt lat="43.11547" lon="5.73364">
        <ele>1.58</ele>
        <time>2016-05-26T10:00:51Z</time>
      </trkpt>
      <trkpt lat="43.11544" lon="5.73401">
        <ele>1.58</ele>
        <time>2016-05-26T10:01:03Z</time>
      </trkpt>
      <trkpt lat="43.11543" lon="5.73447">
        <ele>1.1</ele>
        <time>2016-05-26T10:01:18Z</time>
      </trkpt>
      <trkpt lat="43.11542" lon="5.73494">
        <ele>1.1</ele>
        <time>2016-05-26T10:01:34Z</time>
      </trkpt>
      <trkpt lat="43.11541" lon="5.73544">
        <ele>1.1</ele>
        <time>2016-05-26T10:01:51Z</time>
      </trkpt>
      <trkpt lat="43.1154" lon="5.73587">
        <ele>0.62</ele>
        <time>2016-05-26T10:02:06Z</time>
      </trkpt>
      <trkpt lat="43.1154" lon="5.73633">
        <ele>1.1</ele>
        <time>2016-05-26T10:02:23Z</time>
      </trkpt>
      <trkpt lat="43.1154" lon="5.73675">
        <ele>0.62</ele>
        <time>2016-05-26T10:02:38Z</time>
      </trkpt>
      <trkpt lat="43.11539" lon="5.73714">
        <ele>0.14</ele>
        <time>2016-05-26T10:02:52Z</time>
      </trkpt>
      <trkpt lat="43.11537" lon="5.73749">
        <ele>1.1</ele>
        <time>2016-05-26T10:03:05Z</time>
      </trkpt>
      <trkpt lat="43.11536" lon="5.7379">
        <ele>1.58</ele>
        <time>2016-05-26T10:03:21Z</time>
      </trkpt>
      <trkpt lat="43.11535" lon="5.73829">
        <ele>2.06</ele>
        <time>2016-05-26T10:03:36Z</time>
      </trkpt>
      <trkpt lat="43.11534" lon="5.73867">
        <ele>2.06</ele>
        <time>2016-05-26T10:03:50Z</time>
      </trkpt>
      <trkpt lat="43.11533" lon="5.73915">
        <ele>1.58</ele>
        <time>2016-05-26T10:04:07Z</time>
      </trkpt>
      <trkpt lat="43.11531" lon="5.73966">
        <ele>2.06</ele>
        <time>2016-05-26T10:04:26Z</time>
      </trkpt>
      <trkpt lat="43.11531" lon="5.74017">
        <ele>2.54</ele>
        <time>2016-05-26T10:04:44Z</time>
      </trkpt>
      <trkpt lat="43.11531" lon="5.74065">
        <ele>2.54</ele>
        <time>2016-05-26T10:05:01Z</time>
      </trkpt>
      <trkpt lat="43.1153" lon="5.74109">
        <ele>3.02</ele>
        <time>2016-05-26T10:05:16Z</time>
      </trkpt>
      <trkpt lat="43.11531" lon="5.74167">
        <ele>2.54</ele>
        <time>2016-05-26T10:05:35Z</time>
      </trkpt>
      <trkpt lat="43.11529" lon="5.74226">
        <ele>2.06</ele>
        <time>2016-05-26T10:05:55Z</time>
      </trkpt>
      <trkpt lat="43.1153" lon="5.74277">
        <ele>1.58</ele>
        <time>2016-05-26T10:06:12Z</time>
      </trkpt>
      <trkpt lat="43.11529" lon="5.74323">
        <ele>3.5</ele>
        <time>2016-05-26T10:06:29Z</time>
      </trkpt>
      <trkpt lat="43.11531" lon="5.74367">
        <ele>3.5</ele>
        <time>2016-05-26T10:06:44Z</time>
      </trkpt>
      <trkpt lat="43.11533" lon="5.74416">
        <ele>3.98</ele>
        <time>2016-05-26T10:07:01Z</time>
      </trkpt>
      <trkpt lat="43.11535" lon="5.74456">
        <ele>3.02</ele>
        <time>2016-05-26T10:07:15Z</time>
      </trkpt>
      <trkpt lat="43.11537" lon="5.74497">
        <ele>3.02</ele>
        <time>2016-05-26T10:07:30Z</time>
      </trkpt>
      <trkpt lat="43.11539" lon="5.74544">
        <ele>2.54</ele>
        <time>2016-05-26T10:07:46Z</time>
      </trkpt>
      <trkpt lat="43.11541" lon="5.74584">
        <ele>2.06</ele>
        <time>2016-05-26T10:08:00Z</time>
      </trkpt>
      <trkpt lat="43.11544" lon="5.7464">
        <ele>2.06</ele>
        <time>2016-05-26T10:08:19Z</time>
      </trkpt>
      <trkpt lat="43.11548" lon="5.74702">
        <ele>3.02</ele>
        <time>2016-05-26T10:08:39Z</time>
      </trkpt>
      <trkpt lat="43.11551" lon="5.74761">
        <ele>2.54</ele>
        <time>2016-05-26T10:08:57Z</time>
      </trkpt>
      <trkpt lat="43.11553" lon="5.74815">
        <ele>2.54</ele>
        <time>2016-05-26T10:09:14Z</time>
      </trkpt>
      <trkpt lat="43.11557" lon="5.74871">
        <ele>2.06</ele>
        <time>2016-05-26T10:09:31Z</time>
      </trkpt>
      <trkpt lat="43.11559" lon="5.74936">
        <ele>2.06</ele>
        <time>2016-05-26T10:09:50Z</time>
      </trkpt>
      <trkpt lat="43.11559" lon="5.75003">
        <ele>2.54</ele>
        <time>2016-05-26T10:10:11Z</time>
      </trkpt>
      <trkpt lat="43.11561" lon="5.7506">
        <ele>3.5</ele>
        <time>2016-05-26T10:10:29Z</time>
      </trkpt>
      <trkpt lat="43.1156" lon="5.7512">
        <ele>3.5</ele>
        <time>2016-05-26T10:10:48Z</time>
      </trkpt>
      <trkpt lat="43.11559" lon="5.75175">
        <ele>3.5</ele>
        <time>2016-05-26T10:11:06Z</time>
      </trkpt>
      <trkpt lat="43.11557" lon="5.75224">
        <ele>2.54</ele>
        <time>2016-05-26T10:11:22Z</time>
      </trkpt>
      <trkpt lat="43.11554" lon="5.75292">
        <ele>3.5</ele>
        <time>2016-05-26T10:11:45Z</time>
      </trkpt>
      <trkpt lat="43.11551" lon="5.75339">
        <ele>3.5</ele>
        <time>2016-05-26T10:12:01Z</time>
      </trkpt>
      <trkpt lat="43.11548" lon="5.75397">
        <ele>3.02</ele>
        <time>2016-05-26T10:12:20Z</time>
      </trkpt>
      <trkpt lat="43.11542" lon="5.75454">
        <ele>2.06</ele>
        <time>2016-05-26T10:12:39Z</time>
      </trkpt>
      <trkpt lat="43.11539" lon="5.75496">
        <ele>1.1</ele>
        <time>2016-05-26T10:12:53Z</time>
      </trkpt>
      <trkpt lat="43.11533" lon="5.75549">
        <ele>0.62</ele>
        <time>2016-05-26T10:13:11Z</time>
      </trkpt>
      <trkpt lat="43.11528" lon="5.75597">
        <ele>0.62</ele>
        <time>2016-05-26T10:13:27Z</time>
      </trkpt>
      <trkpt lat="43.11522" lon="5.7565">
        <ele>0.62</ele>
        <time>2016-05-26T10:13:45Z</time>
      </trkpt>
      <trkpt lat="43.11517" lon="5.75704">
        <ele>1.1</ele>
        <time>2016-05-26T10:14:02Z</time>
      </trkpt>
      <trkpt lat="43.11512" lon="5.75756">
        <ele>1.1</ele>
        <time>2016-05-26T10:14:18Z</time>
      </trkpt>
      <trkpt lat="43.11507" lon="5.75806">
        <ele>1.58</ele>
        <time>2016-05-26T10:14:33Z</time>
      </trkpt>
      <trkpt lat="43.11498" lon="5.75886">
        <ele>1.1</ele>
        <time>2016-05-26T10:14:56Z</time>
      </trkpt>
      <trkpt lat="43.11489" lon="5.75963">
        <ele>1.58</ele>
        <time>2016-05-26T10:15:18Z</time>
      </trkpt>
      <trkpt lat="43.1148" lon="5.76019">
        <ele>0.62</ele>
        <time>2016-05-26T10:15:34Z</time>
      </trkpt>
      <trkpt lat="43.11471" lon="5.76072">
        <ele>0.14</ele>
        <time>2016-05-26T10:15:50Z</time>
      </trkpt>
      <trkpt lat="43.11462" lon="5.76132">
        <ele>0.14</ele>
        <time>2016-05-26T10:16:09Z</time>
      </trkpt>
      <trkpt lat="43.11452" lon="5.7619">
        <ele>-0.34</ele>
        <time>2016-05-26T10:16:29Z</time>
      </trkpt>
      <trkpt lat="43.11444" lon="5.76241">
        <ele>-0.34</ele>
        <time>2016-05-26T10:16:48Z</time>
      </trkpt>
      <trkpt lat="43.11434" lon="5.76291">
        <ele>-0.82</ele>
        <time>2016-05-26T10:17:09Z</time>
      </trkpt>
      <trkpt lat="43.11426" lon="5.76343">
        <ele>-0.82</ele>
        <time>2016-05-26T10:17:30Z</time>
      </trkpt>
      <trkpt lat="43.11425" lon="5.76394">
        <ele>-0.34</ele>
        <time>2016-05-26T10:17:46Z</time>
      </trkpt>
      <trkpt lat="43.11425" lon="5.76452">
        <ele>0.14</ele>
        <time>2016-05-26T10:18:02Z</time>
      </trkpt>
      <trkpt lat="43.11423" lon="5.76512">
        <ele>0.14</ele>
        <time>2016-05-26T10:18:18Z</time>
      </trkpt>
      <trkpt lat="43.11423" lon="5.76602">
        <ele>0.62</ele>
        <time>2016-05-26T10:18:41Z</time>
      </trkpt>
      <trkpt lat="43.11422" lon="5.76675">
        <ele>0.14</ele>
        <time>2016-05-26T10:18:59Z</time>
      </trkpt>
      <trkpt lat="43.11413" lon="5.76743">
        <ele>-0.82</ele>
        <time>2016-05-26T10:19:17Z</time>
      </trkpt>
      <trkpt lat="43.11404" lon="5.76805">
        <ele>-2.75</ele>
        <time>2016-05-26T10:19:35Z</time>
      </trkpt>
      <trkpt lat="43.11394" lon="5.76873">
        <ele>-0.34</ele>
        <time>2016-05-26T10:19:56Z</time>
      </trkpt>
      <trkpt lat="43.11387" lon="5.76932">
        <ele>1.1</ele>
        <time>2016-05-26T10:20:14Z</time>
      </trkpt>
      <trkpt lat="43.11381" lon="5.76994">
        <ele>0.62</ele>
        <time>2016-05-26T10:20:33Z</time>
      </trkpt>
      <trkpt lat="43.11377" lon="5.7705">
        <ele>-0.34</ele>
        <time>2016-05-26T10:20:50Z</time>
      </trkpt>
      <trkpt lat="43.11371" lon="5.77104">
        <ele>-0.34</ele>
        <time>2016-05-26T10:21:07Z</time>
      </trkpt>
      <trkpt lat="43.11365" lon="5.77165">
        <ele>0.62</ele>
        <time>2016-05-26T10:21:26Z</time>
      </trkpt>
      <trkpt lat="43.1136" lon="5.77224">
        <ele>-0.34</ele>
        <time>2016-05-26T10:21:44Z</time>
      </trkpt>
      <trkpt lat="43.11352" lon="5.77291">
        <ele>-1.79</ele>
        <time>2016-05-26T10:22:04Z</time>
      </trkpt>
      <trkpt lat="43.11344" lon="5.77364">
        <ele>-2.27</ele>
        <time>2016-05-26T10:22:25Z</time>
      </trkpt>
      <trkpt lat="43.11335" lon="5.77435">
        <ele>-1.79</ele>
        <time>2016-05-26T10:22:45Z</time>
      </trkpt>
      <trkpt lat="43.11328" lon="5.77492">
        <ele>-1.79</ele>
        <time>2016-05-26T10:23:01Z</time>
      </trkpt>
      <trkpt lat="43.1132" lon="5.77548">
        <ele>-1.79</ele>
        <time>2016-05-26T10:23:17Z</time>
      </trkpt>
      <trkpt lat="43.11313" lon="5.77621">
        <ele>-2.27</ele>
        <time>2016-05-26T10:23:38Z</time>
      </trkpt>
      <trkpt lat="43.11309" lon="5.77692">
        <ele>-2.75</ele>
        <time>2016-05-26T10:23:57Z</time>
      </trkpt>
      <trkpt lat="43.11303" lon="5.77766">
        <ele>-4.19</ele>
        <time>2016-05-26T10:24:17Z</time>
      </trkpt>
      <trkpt lat="43.11298" lon="5.77822">
        <ele>-4.19</ele>
        <time>2016-05-26T10:24:33Z</time>
      </trkpt>
      <trkpt lat="43.11293" lon="5.77884">
        <ele>-4.19</ele>
        <time>2016-05-26T10:24:51Z</time>
      </trkpt>
      <trkpt lat="43.11287" lon="5.7795">
        <ele>-2.75</ele>
        <time>2016-05-26T10:25:12Z</time>
      </trkpt>
      <trkpt lat="43.11287" lon="5.77998">
        <ele>-0.34</ele>
        <time>2016-05-26T10:25:29Z</time>
      </trkpt>
      <trkpt lat="43.1129" lon="5.78061">
        <ele>0.14</ele>
        <time>2016-05-26T10:25:49Z</time>
      </trkpt>
      <trkpt lat="43.11292" lon="5.78117">
        <ele>0.62</ele>
        <time>2016-05-26T10:26:06Z</time>
      </trkpt>
      <trkpt lat="43.11295" lon="5.78193">
        <ele>-0.34</ele>
        <time>2016-05-26T10:26:28Z</time>
      </trkpt>
      <trkpt lat="43.11302" lon="5.78271">
        <ele>-0.82</ele>
        <time>2016-05-26T10:26:50Z</time>
      </trkpt>
      <trkpt lat="43.11308" lon="5.78347">
        <ele>-0.82</ele>
        <time>2016-05-26T10:27:11Z</time>
      </trkpt>
      <trkpt lat="43.11309" lon="5.78412">
        <ele>-0.82</ele>
        <time>2016-05-26T10:27:29Z</time>
      </trkpt>
      <trkpt lat="43.11305" lon="5.78424">
        <ele>-0.82</ele>
        <time>2016-05-26T10:27:34Z</time>
      </trkpt>
      <trkpt lat="43.11274" lon="5.78437">
        <ele>-1.3</ele>
        <time>2016-05-26T10:27:54Z</time>
      </trkpt>
      <trkpt lat="43.11246" lon="5.78449">
        <ele>-0.82</ele>
        <time>2016-05-26T10:28:10Z</time>
      </trkpt>
      <trkpt lat="43.11211" lon="5.78466">
        <ele>0.14</ele>
        <time>2016-05-26T10:28:28Z</time>
      </trkpt>
      <trkpt lat="43.11173" lon="5.78483">
        <ele>0.14</ele>
        <time>2016-05-26T10:28:45Z</time>
      </trkpt>
      <trkpt lat="43.11123" lon="5.78501">
        <ele>-0.82</ele>
        <time>2016-05-26T10:29:05Z</time>
      </trkpt>
      <trkpt lat="43.11065" lon="5.78518">
        <ele>-1.3</ele>
        <time>2016-05-26T10:29:26Z</time>
      </trkpt>
      <trkpt lat="43.11" lon="5.78537">
        <ele>-2.27</ele>
        <time>2016-05-26T10:29:48Z</time>
      </trkpt>
      <trkpt lat="43.10938" lon="5.78554">
        <ele>-3.23</ele>
        <time>2016-05-26T10:30:08Z</time>
      </trkpt>
      <trkpt lat="43.10873" lon="5.78563">
        <ele>-0.82</ele>
        <time>2016-05-26T10:30:28Z</time>
      </trkpt>
      <trkpt lat="43.10812" lon="5.78582">
        <ele>1.1</ele>
        <time>2016-05-26T10:30:47Z</time>
      </trkpt>
      <trkpt lat="43.10754" lon="5.786">
        <ele>1.1</ele>
        <time>2016-05-26T10:31:06Z</time>
      </trkpt>
      <trkpt lat="43.10752" lon="5.78607">
        <ele>1.58</ele>
        <time>2016-05-26T10:31:08Z</time>
      </trkpt>
      <trkpt lat="43.10765" lon="5.78644">
        <ele>0.62</ele>
        <time>2016-05-26T10:31:23Z</time>
      </trkpt>
      <trkpt lat="43.10783" lon="5.78702">
        <ele>0.14</ele>
        <time>2016-05-26T10:31:45Z</time>
      </trkpt>
      <trkpt lat="43.10801" lon="5.78765">
        <ele>-0.34</ele>
        <time>2016-05-26T10:32:05Z</time>
      </trkpt>
      <trkpt lat="43.10817" lon="5.78835">
        <ele>-0.34</ele>
        <time>2016-05-26T10:32:25Z</time>
      </trkpt>
      <trkpt lat="43.10832" lon="5.789">
        <ele>-0.34</ele>
        <time>2016-05-26T10:32:43Z</time>
      </trkpt>
      <trkpt lat="43.10849" lon="5.78978">
        <ele>-0.34</ele>
        <time>2016-05-26T10:33:04Z</time>
      </trkpt>
      <trkpt lat="43.10868" lon="5.7907">
        <ele>0.14</ele>
        <time>2016-05-26T10:33:28Z</time>
      </trkpt>
      <trkpt lat="43.1088" lon="5.7914">
        <ele>-0.82</ele>
        <time>2016-05-26T10:33:46Z</time>
      </trkpt>
      <trkpt lat="43.10892" lon="5.79212">
        <ele>-1.3</ele>
        <time>2016-05-26T10:34:06Z</time>
      </trkpt>
      <trkpt lat="43.10905" lon="5.79288">
        <ele>-1.3</ele>
        <time>2016-05-26T10:34:29Z</time>
      </trkpt>
      <trkpt lat="43.10918" lon="5.79362">
        <ele>-0.34</ele>
        <time>2016-05-26T10:34:51Z</time>
      </trkpt>
      <trkpt lat="43.10932" lon="5.79442">
        <ele>-1.3</ele>
        <time>2016-05-26T10:35:12Z</time>
      </trkpt>
      <trkpt lat="43.10947" lon="5.79516">
        <ele>-0.34</ele>
        <time>2016-05-26T10:35:31Z</time>
      </trkpt>
      <trkpt lat="43.10962" lon="5.79582">
        <ele>-0.82</ele>
        <time>2016-05-26T10:35:48Z</time>
      </trkpt>
      <trkpt lat="43.10977" lon="5.79659">
        <ele>-0.82</ele>
        <time>2016-05-26T10:36:08Z</time>
      </trkpt>
      <trkpt lat="43.10991" lon="5.79746">
        <ele>-1.3</ele>
        <time>2016-05-26T10:36:31Z</time>
      </trkpt>
      <trkpt lat="43.10974" lon="5.79761">
        <ele>-0.82</ele>
        <time>2016-05-26T10:36:43Z</time>
      </trkpt>
      <trkpt lat="43.10927" lon="5.79748">
        <ele>-0.34</ele>
        <time>2016-05-26T10:37:01Z</time>
      </trkpt>
      <trkpt lat="43.10911" lon="5.79692">
        <ele>0.14</ele>
        <time>2016-05-26T10:37:14Z</time>
      </trkpt>
      <trkpt lat="43.10902" lon="5.79589">
        <ele>1.1</ele>
        <time>2016-05-26T10:37:36Z</time>
      </trkpt>
      <trkpt lat="43.10894" lon="5.79489">
        <ele>0.14</ele>
        <time>2016-05-26T10:37:57Z</time>
      </trkpt>
      <trkpt lat="43.10878" lon="5.79389">
        <ele>0.62</ele>
        <time>2016-05-26T10:38:18Z</time>
      </trkpt>
      <trkpt lat="43.10866" lon="5.79304">
        <ele>1.1</ele>
        <time>2016-05-26T10:38:36Z</time>
      </trkpt>
      <trkpt lat="43.10861" lon="5.79194">
        <ele>0.62</ele>
        <time>2016-05-26T10:39:00Z</time>
      </trkpt>
      <trkpt lat="43.10863" lon="5.79103">
        <ele>0.14</ele>
        <time>2016-05-26T10:39:22Z</time>
      </trkpt>
      <trkpt lat="43.10854" lon="5.79019">
        <ele>0.62</ele>
        <time>2016-05-26T10:39:41Z</time>
      </trkpt>
      <trkpt lat="43.10837" lon="5.78929">
        <ele>0.14</ele>
        <time>2016-05-26T10:40:02Z</time>
      </trkpt>
      <trkpt lat="43.10828" lon="5.78851">
        <ele>0.14</ele>
        <time>2016-05-26T10:40:21Z</time>
      </trkpt>
      <trkpt lat="43.10822" lon="5.78764">
        <ele>0.62</ele>
        <time>2016-05-26T10:40:43Z</time>
      </trkpt>
      <trkpt lat="43.10821" lon="5.78678">
        <ele>0.14</ele>
        <time>2016-05-26T10:41:07Z</time>
      </trkpt>
      <trkpt lat="43.10818" lon="5.7859">
        <ele>1.58</ele>
        <time>2016-05-26T10:41:30Z</time>
      </trkpt>
      <trkpt lat="43.10809" lon="5.78497">
        <ele>0.62</ele>
        <time>2016-05-26T10:41:52Z</time>
      </trkpt>
      <trkpt lat="43.10809" lon="5.78405">
        <ele>0.62</ele>
        <time>2016-05-26T10:42:13Z</time>
      </trkpt>
      <trkpt lat="43.10815" lon="5.78329">
        <ele>1.1</ele>
        <time>2016-05-26T10:42:33Z</time>
      </trkpt>
      <trkpt lat="43.10822" lon="5.78256">
        <ele>1.1</ele>
        <time>2016-05-26T10:42:52Z</time>
      </trkpt>
      <trkpt lat="43.1083" lon="5.78159">
        <ele>1.1</ele>
        <time>2016-05-26T10:43:16Z</time>
      </trkpt>
      <trkpt lat="43.10833" lon="5.78063">
        <ele>0.14</ele>
        <time>2016-05-26T10:43:38Z</time>
      </trkpt>
      <trkpt lat="43.10838" lon="5.77978">
        <ele>0.62</ele>
        <time>2016-05-26T10:43:59Z</time>
      </trkpt>
      <trkpt lat="43.10848" lon="5.779">
        <ele>1.1</ele>
        <time>2016-05-26T10:44:19Z</time>
      </trkpt>
      <trkpt lat="43.10858" lon="5.77817">
        <ele>1.1</ele>
        <time>2016-05-26T10:44:41Z</time>
      </trkpt>
      <trkpt lat="43.10864" lon="5.77734">
        <ele>1.1</ele>
        <time>2016-05-26T10:45:02Z</time>
      </trkpt>
      <trkpt lat="43.10871" lon="5.77646">
        <ele>1.58</ele>
        <time>2016-05-26T10:45:24Z</time>
      </trkpt>
      <trkpt lat="43.10877" lon="5.77567">
        <ele>1.58</ele>
        <time>2016-05-26T10:45:44Z</time>
      </trkpt>
      <trkpt lat="43.10881" lon="5.77485">
        <ele>1.1</ele>
        <time>2016-05-26T10:46:04Z</time>
      </trkpt>
      <trkpt lat="43.10888" lon="5.77405">
        <ele>1.58</ele>
        <time>2016-05-26T10:46:24Z</time>
      </trkpt>
      <trkpt lat="43.10893" lon="5.77335">
        <ele>1.1</ele>
        <time>2016-05-26T10:46:42Z</time>
      </trkpt>
      <trkpt lat="43.10891" lon="5.77262">
        <ele>1.58</ele>
        <time>2016-05-26T10:47:00Z</time>
      </trkpt>
      <trkpt lat="43.10896" lon="5.77183">
        <ele>2.06</ele>
        <time>2016-05-26T10:47:20Z</time>
      </trkpt>
      <trkpt lat="43.10904" lon="5.77108">
        <ele>1.1</ele>
        <time>2016-05-26T10:47:42Z</time>
      </trkpt>
      <trkpt lat="43.10914" lon="5.77043">
        <ele>0.62</ele>
        <time>2016-05-26T10:48:02Z</time>
      </trkpt>
      <trkpt lat="43.10931" lon="5.76988">
        <ele>-0.34</ele>
        <time>2016-05-26T10:48:21Z</time>
      </trkpt>
      <trkpt lat="43.10959" lon="5.76937">
        <ele>-1.3</ele>
        <time>2016-05-26T10:48:39Z</time>
      </trkpt>
      <trkpt lat="43.10985" lon="5.76894">
        <ele>-2.75</ele>
        <time>2016-05-26T10:48:55Z</time>
      </trkpt>
      <trkpt lat="43.11014" lon="5.76841">
        <ele>-2.75</ele>
        <time>2016-05-26T10:49:13Z</time>
      </trkpt>
      <trkpt lat="43.11048" lon="5.76782">
        <ele>-2.75</ele>
        <time>2016-05-26T10:49:33Z</time>
      </trkpt>
      <trkpt lat="43.11078" lon="5.76724">
        <ele>-1.79</ele>
        <time>2016-05-26T10:49:52Z</time>
      </trkpt>
      <trkpt lat="43.11107" lon="5.76665">
        <ele>-1.3</ele>
        <time>2016-05-26T10:50:11Z</time>
      </trkpt>
      <trkpt lat="43.11132" lon="5.76619">
        <ele>-0.34</ele>
        <time>2016-05-26T10:50:27Z</time>
      </trkpt>
      <trkpt lat="43.11158" lon="5.7655">
        <ele>0.14</ele>
        <time>2016-05-26T10:50:49Z</time>
      </trkpt>
      <trkpt lat="43.11183" lon="5.7649">
        <ele>-1.3</ele>
        <time>2016-05-26T10:51:09Z</time>
      </trkpt>
      <trkpt lat="43.11204" lon="5.7643">
        <ele>-0.82</ele>
        <time>2016-05-26T10:51:28Z</time>
      </trkpt>
      <trkpt lat="43.11231" lon="5.76369">
        <ele>-0.82</ele>
        <time>2016-05-26T10:51:49Z</time>
      </trkpt>
      <trkpt lat="43.11249" lon="5.76314">
        <ele>-0.82</ele>
        <time>2016-05-26T10:52:08Z</time>
      </trkpt>
      <trkpt lat="43.11274" lon="5.76264">
        <ele>-1.3</ele>
        <time>2016-05-26T10:52:27Z</time>
      </trkpt>
      <trkpt lat="43.11299" lon="5.76215">
        <ele>-0.82</ele>
        <time>2016-05-26T10:52:45Z</time>
      </trkpt>
      <trkpt lat="43.11324" lon="5.76164">
        <ele>-0.82</ele>
        <time>2016-05-26T10:53:04Z</time>
      </trkpt>
      <trkpt lat="43.11346" lon="5.76119">
        <ele>-0.34</ele>
        <time>2016-05-26T10:53:21Z</time>
      </trkpt>
      <trkpt lat="43.11374" lon="5.76053">
        <ele>-0.34</ele>
        <time>2016-05-26T10:53:44Z</time>
      </trkpt>
      <trkpt lat="43.11401" lon="5.75987">
        <ele>-0.34</ele>
        <time>2016-05-26T10:54:06Z</time>
      </trkpt>
      <trkpt lat="43.11428" lon="5.75921">
        <ele>-1.3</ele>
        <time>2016-05-26T10:54:28Z</time>
      </trkpt>
      <trkpt lat="43.11455" lon="5.75865">
        <ele>-1.3</ele>
        <time>2016-05-26T10:54:47Z</time>
      </trkpt>
      <trkpt lat="43.1148" lon="5.7581">
        <ele>-1.79</ele>
        <time>2016-05-26T10:55:05Z</time>
      </trkpt>
      <trkpt lat="43.11506" lon="5.75749">
        <ele>-1.79</ele>
        <time>2016-05-26T10:55:23Z</time>
      </trkpt>
      <trkpt lat="43.11533" lon="5.75684">
        <ele>-2.27</ele>
        <time>2016-05-26T10:55:42Z</time>
      </trkpt>
      <trkpt lat="43.11558" lon="5.75628">
        <ele>-1.79</ele>
        <time>2016-05-26T10:55:58Z</time>
      </trkpt>
      <trkpt lat="43.11587" lon="5.75563">
        <ele>-1.79</ele>
        <time>2016-05-26T10:56:17Z</time>
      </trkpt>
      <trkpt lat="43.1161" lon="5.75509">
        <ele>-0.82</ele>
        <time>2016-05-26T10:56:33Z</time>
      </trkpt>
      <trkpt lat="43.11641" lon="5.75442">
        <ele>-0.82</ele>
        <time>2016-05-26T10:56:53Z</time>
      </trkpt>
      <trkpt lat="43.11667" lon="5.75385">
        <ele>-0.82</ele>
        <time>2016-05-26T10:57:10Z</time>
      </trkpt>
      <trkpt lat="43.11695" lon="5.75328">
        <ele>-1.3</ele>
        <time>2016-05-26T10:57:27Z</time>
      </trkpt>
      <trkpt lat="43.11729" lon="5.75258">
        <ele>-2.27</ele>
        <time>2016-05-26T10:57:47Z</time>
      </trkpt>
      <trkpt lat="43.11757" lon="5.75201">
        <ele>-2.27</ele>
        <time>2016-05-26T10:58:04Z</time>
      </trkpt>
      <trkpt lat="43.11784" lon="5.75143">
        <ele>-2.27</ele>
        <time>2016-05-26T10:58:21Z</time>
      </trkpt>
      <trkpt lat="43.11814" lon="5.7508">
        <ele>-2.27</ele>
        <time>2016-05-26T10:58:39Z</time>
      </trkpt>
      <trkpt lat="43.11845" lon="5.75018">
        <ele>-2.75</ele>
        <time>2016-05-26T10:58:57Z</time>
      </trkpt>
      <trkpt lat="43.11878" lon="5.74952">
        <ele>-2.75</ele>
        <time>2016-05-26T10:59:17Z</time>
      </trkpt>
      <trkpt lat="43.11903" lon="5.749">
        <ele>-3.23</ele>
        <time>2016-05-26T10:59:32Z</time>
      </trkpt>
      <trkpt lat="43.11924" lon="5.74852">
        <ele>-2.75</ele>
        <time>2016-05-26T10:59:46Z</time>
      </trkpt>
      <trkpt lat="43.11954" lon="5.74796">
        <ele>-2.75</ele>
        <time>2016-05-26T11:00:04Z</time>
      </trkpt>
      <trkpt lat="43.1198" lon="5.74744">
        <ele>-1.79</ele>
        <time>2016-05-26T11:00:21Z</time>
      </trkpt>
      <trkpt lat="43.12002" lon="5.74695">
        <ele>-1.3</ele>
        <time>2016-05-26T11:00:36Z</time>
      </trkpt>
      <trkpt lat="43.12026" lon="5.74645">
        <ele>-0.82</ele>
        <time>2016-05-26T11:00:52Z</time>
      </trkpt>
      <trkpt lat="43.1205" lon="5.74596">
        <ele>-0.34</ele>
        <time>2016-05-26T11:01:08Z</time>
      </trkpt>
      <trkpt lat="43.12084" lon="5.74536">
        <ele>-0.34</ele>
        <time>2016-05-26T11:01:28Z</time>
      </trkpt>
      <trkpt lat="43.12106" lon="5.74494">
        <ele>0.14</ele>
        <time>2016-05-26T11:01:41Z</time>
      </trkpt>
      <trkpt lat="43.1214" lon="5.74434">
        <ele>-0.34</ele>
        <time>2016-05-26T11:02:00Z</time>
      </trkpt>
      <trkpt lat="43.12166" lon="5.74387">
        <ele>-0.82</ele>
        <time>2016-05-26T11:02:15Z</time>
      </trkpt>
      <trkpt lat="43.12189" lon="5.74343">
        <ele>-1.3</ele>
        <time>2016-05-26T11:02:29Z</time>
      </trkpt>
      <trkpt lat="43.12221" lon="5.74285">
        <ele>-1.79</ele>
        <time>2016-05-26T11:02:47Z</time>
      </trkpt>
      <trkpt lat="43.12251" lon="5.74226">
        <ele>-1.79</ele>
        <time>2016-05-26T11:03:06Z</time>
      </trkpt>
      <trkpt lat="43.12276" lon="5.74176">
        <ele>-2.27</ele>
        <time>2016-05-26T11:03:22Z</time>
      </trkpt>
      <trkpt lat="43.12307" lon="5.74117">
        <ele>-2.27</ele>
        <time>2016-05-26T11:03:41Z</time>
      </trkpt>
      <trkpt lat="43.12333" lon="5.74067">
        <ele>-2.75</ele>
        <time>2016-05-26T11:03:57Z</time>
      </trkpt>
      <trkpt lat="43.12364" lon="5.74017">
        <ele>-1.79</ele>
        <time>2016-05-26T11:04:15Z</time>
      </trkpt>
      <trkpt lat="43.12401" lon="5.73958">
        <ele>-1.3</ele>
        <time>2016-05-26T11:04:36Z</time>
      </trkpt>
      <trkpt lat="43.12435" lon="5.73908">
        <ele>-1.3</ele>
        <time>2016-05-26T11:04:55Z</time>
      </trkpt>
      <trkpt lat="43.12464" lon="5.73861">
        <ele>-1.3</ele>
        <time>2016-05-26T11:05:12Z</time>
      </trkpt>
      <trkpt lat="43.12496" lon="5.73814">
        <ele>-1.79</ele>
        <time>2016-05-26T11:05:31Z</time>
      </trkpt>
      <trkpt lat="43.12523" lon="5.73769">
        <ele>-1.3</ele>
        <time>2016-05-26T11:05:48Z</time>
      </trkpt>
      <trkpt lat="43.12554" lon="5.7372">
        <ele>-1.3</ele>
        <time>2016-05-26T11:06:07Z</time>
      </trkpt>
      <trkpt lat="43.12578" lon="5.73683">
        <ele>-1.3</ele>
        <time>2016-05-26T11:06:22Z</time>
      </trkpt>
      <trkpt lat="43.12609" lon="5.73635">
        <ele>-1.79</ele>
        <time>2016-05-26T11:06:42Z</time>
      </trkpt>
      <trkpt lat="43.1264" lon="5.73583">
        <ele>-1.3</ele>
        <time>2016-05-26T11:07:02Z</time>
      </trkpt>
      <trkpt lat="43.12665" lon="5.73538">
        <ele>-1.3</ele>
        <time>2016-05-26T11:07:19Z</time>
      </trkpt>
      <trkpt lat="43.12698" lon="5.7348">
        <ele>-1.79</ele>
        <time>2016-05-26T11:07:41Z</time>
      </trkpt>
      <trkpt lat="43.12731" lon="5.73426">
        <ele>-1.79</ele>
        <time>2016-05-26T11:08:02Z</time>
      </trkpt>
      <trkpt lat="43.12762" lon="5.73376">
        <ele>-1.79</ele>
        <time>2016-05-26T11:08:22Z</time>
      </trkpt>
      <trkpt lat="43.12791" lon="5.73328">
        <ele>-0.82</ele>
        <time>2016-05-26T11:08:41Z</time>
      </trkpt>
      <trkpt lat="43.12824" lon="5.73275">
        <ele>-0.34</ele>
        <time>2016-05-26T11:09:02Z</time>
      </trkpt>
      <trkpt lat="43.12852" lon="5.73226">
        <ele>0.62</ele>
        <time>2016-05-26T11:09:20Z</time>
      </trkpt>
      <trkpt lat="43.12879" lon="5.73175">
        <ele>0.14</ele>
        <time>2016-05-26T11:09:38Z</time>
      </trkpt>
      <trkpt lat="43.12906" lon="5.73123">
        <ele>-0.34</ele>
        <time>2016-05-26T11:09:56Z</time>
      </trkpt>
      <trkpt lat="43.12928" lon="5.73079">
        <ele>-0.82</ele>
        <time>2016-05-26T11:10:11Z</time>
      </trkpt>
      <trkpt lat="43.12955" lon="5.73024">
        <ele>-0.34</ele>
        <time>2016-05-26T11:10:30Z</time>
      </trkpt>
      <trkpt lat="43.12983" lon="5.72969">
        <ele>-0.34</ele>
        <time>2016-05-26T11:10:49Z</time>
      </trkpt>
      <trkpt lat="43.12998" lon="5.72932">
        <ele>-0.34</ele>
        <time>2016-05-26T11:11:01Z</time>
      </trkpt>
      <trkpt lat="43.13004" lon="5.72907">
        <ele>-0.82</ele>
        <time>2016-05-26T11:11:08Z</time>
      </trkpt>
      <trkpt lat="43.12996" lon="5.72895">
        <ele>-0.82</ele>
        <time>2016-05-26T11:11:14Z</time>
      </trkpt>
      <trkpt lat="43.12971" lon="5.72886">
        <ele>-0.82</ele>
        <time>2016-05-26T11:11:31Z</time>
      </trkpt>
      <trkpt lat="43.12955" lon="5.7289">
        <ele>-0.82</ele>
        <time>2016-05-26T11:11:45Z</time>
      </trkpt>
      <trkpt lat="43.1294" lon="5.72889">
        <ele>-0.82</ele>
        <time>2016-05-26T11:12:00Z</time>
      </trkpt>
      <trkpt lat="43.12915" lon="5.72888">
        <ele>-0.82</ele>
        <time>2016-05-26T11:12:16Z</time>
      </trkpt>
      <trkpt lat="43.12891" lon="5.72891">
        <ele>-0.34</ele>
        <time>2016-05-26T11:12:30Z</time>
      </trkpt>
      <trkpt lat="43.12866" lon="5.72897">
        <ele>-0.34</ele>
        <time>2016-05-26T11:12:45Z</time>
      </trkpt>
      <trkpt lat="43.12841" lon="5.72899">
        <ele>-0.82</ele>
        <time>2016-05-26T11:12:59Z</time>
      </trkpt>
      <trkpt lat="43.1281" lon="5.72899">
        <ele>-0.82</ele>
        <time>2016-05-26T11:13:14Z</time>
      </trkpt>
      <trkpt lat="43.12772" lon="5.72901">
        <ele>-0.82</ele>
        <time>2016-05-26T11:13:29Z</time>
      </trkpt>
      <trkpt lat="43.12727" lon="5.72906">
        <ele>-1.3</ele>
        <time>2016-05-26T11:13:46Z</time>
      </trkpt>
      <trkpt lat="43.12682" lon="5.7291">
        <ele>-0.82</ele>
        <time>2016-05-26T11:14:03Z</time>
      </trkpt>
      <trkpt lat="43.12631" lon="5.7291">
        <ele>-1.3</ele>
        <time>2016-05-26T11:14:22Z</time>
      </trkpt>
      <trkpt lat="43.12593" lon="5.72905">
        <ele>-2.27</ele>
        <time>2016-05-26T11:14:35Z</time>
      </trkpt>
      <trkpt lat="43.12554" lon="5.72899">
        <ele>-3.23</ele>
        <time>2016-05-26T11:14:48Z</time>
      </trkpt>
      <trkpt lat="43.12512" lon="5.72886">
        <ele>-4.19</ele>
        <time>2016-05-26T11:15:01Z</time>
      </trkpt>
      <trkpt lat="43.12458" lon="5.72874">
        <ele>-3.71</ele>
        <time>2016-05-26T11:15:18Z</time>
      </trkpt>
      <trkpt lat="43.12419" lon="5.72868">
        <ele>-3.71</ele>
        <time>2016-05-26T11:15:31Z</time>
      </trkpt>
      <trkpt lat="43.12376" lon="5.72865">
        <ele>-4.67</ele>
        <time>2016-05-26T11:15:46Z</time>
      </trkpt>
      <trkpt lat="43.12338" lon="5.7286">
        <ele>-4.19</ele>
        <time>2016-05-26T11:15:59Z</time>
      </trkpt>
      <trkpt lat="43.12295" lon="5.72855">
        <ele>-4.19</ele>
        <time>2016-05-26T11:16:13Z</time>
      </trkpt>
      <trkpt lat="43.12254" lon="5.72856">
        <ele>-3.71</ele>
        <time>2016-05-26T11:16:26Z</time>
      </trkpt>
      <trkpt lat="43.12212" lon="5.72856">
        <ele>-3.71</ele>
        <time>2016-05-26T11:16:40Z</time>
      </trkpt>
      <trkpt lat="43.1218" lon="5.72855">
        <ele>-4.67</ele>
        <time>2016-05-26T11:16:51Z</time>
      </trkpt>
      <trkpt lat="43.12137" lon="5.72855">
        <ele>-5.15</ele>
        <time>2016-05-26T11:17:05Z</time>
      </trkpt>
      <trkpt lat="43.12094" lon="5.72853">
        <ele>-4.67</ele>
        <time>2016-05-26T11:17:19Z</time>
      </trkpt>
      <trkpt lat="43.12045" lon="5.72853">
        <ele>-4.19</ele>
        <time>2016-05-26T11:17:35Z</time>
      </trkpt>
      <trkpt lat="43.12002" lon="5.72855">
        <ele>-3.71</ele>
        <time>2016-05-26T11:17:49Z</time>
      </trkpt>
      <trkpt lat="43.11959" lon="5.7286">
        <ele>-3.71</ele>
        <time>2016-05-26T11:18:03Z</time>
      </trkpt>
      <trkpt lat="43.11905" lon="5.72874">
        <ele>-3.23</ele>
        <time>2016-05-26T11:18:21Z</time>
      </trkpt>
      <trkpt lat="43.11859" lon="5.72881">
        <ele>-2.75</ele>
        <time>2016-05-26T11:18:36Z</time>
      </trkpt>
      <trkpt lat="43.11803" lon="5.72891">
        <ele>-2.27</ele>
        <time>2016-05-26T11:18:54Z</time>
      </trkpt>
      <trkpt lat="43.11752" lon="5.72903">
        <ele>-2.27</ele>
        <time>2016-05-26T11:19:11Z</time>
      </trkpt>
      <trkpt lat="43.11703" lon="5.72917">
        <ele>-1.79</ele>
        <time>2016-05-26T11:19:28Z</time>
      </trkpt>
      <trkpt lat="43.11663" lon="5.7294">
        <ele>-0.34</ele>
        <time>2016-05-26T11:19:45Z</time>
      </trkpt>
      <trkpt lat="43.11668" lon="5.72976">
        <ele>-0.34</ele>
        <time>2016-05-26T11:20:01Z</time>
      </trkpt>
      <trkpt lat="43.1167" lon="5.73004">
        <ele>-0.34</ele>
        <time>2016-05-26T11:20:16Z</time>
      </trkpt>
      <trkpt lat="43.11672" lon="5.73041">
        <ele>-0.34</ele>
        <time>2016-05-26T11:20:34Z</time>
      </trkpt>
      <trkpt lat="43.11674" lon="5.73081">
        <ele>0.14</ele>
        <time>2016-05-26T11:20:50Z</time>
      </trkpt>
      <trkpt lat="43.11671" lon="5.7313">
        <ele>-0.34</ele>
        <time>2016-05-26T11:21:08Z</time>
      </trkpt>
      <trkpt lat="43.11671" lon="5.73173">
        <ele>-0.34</ele>
        <time>2016-05-26T11:21:23Z</time>
      </trkpt>
      <trkpt lat="43.11669" lon="5.73222">
        <ele>-0.82</ele>
        <time>2016-05-26T11:21:40Z</time>
      </trkpt>
      <trkpt lat="43.11667" lon="5.73261">
        <ele>-0.34</ele>
        <time>2016-05-26T11:21:54Z</time>
      </trkpt>
      <trkpt lat="43.1167" lon="5.73309">
        <ele>-0.34</ele>
        <time>2016-05-26T11:22:10Z</time>
      </trkpt>
      <trkpt lat="43.11687" lon="5.73369">
        <ele>0.14</ele>
        <time>2016-05-26T11:22:26Z</time>
      </trkpt>
      <trkpt lat="43.11711" lon="5.73442">
        <ele>1.1</ele>
        <time>2016-05-26T11:22:45Z</time>
      </trkpt>
      <trkpt lat="43.11739" lon="5.73526">
        <ele>0.62</ele>
        <time>2016-05-26T11:23:07Z</time>
      </trkpt>
      <trkpt lat="43.1175" lon="5.73587">
        <ele>0.14</ele>
        <time>2016-05-26T11:23:25Z</time>
      </trkpt>
      <trkpt lat="43.1176" lon="5.73638">
        <ele>1.1</ele>
        <time>2016-05-26T11:23:41Z</time>
      </trkpt>
      <trkpt lat="43.11783" lon="5.73695">
        <ele>2.06</ele>
        <time>2016-05-26T11:23:58Z</time>
      </trkpt>
      <trkpt lat="43.11803" lon="5.73763">
        <ele>1.1</ele>
        <time>2016-05-26T11:24:17Z</time>
      </trkpt>
      <trkpt lat="43.11828" lon="5.73812">
        <ele>1.58</ele>
        <time>2016-05-26T11:24:32Z</time>
      </trkpt>
      <trkpt lat="43.1186" lon="5.73875">
        <ele>1.58</ele>
        <time>2016-05-26T11:24:50Z</time>
      </trkpt>
      <trkpt lat="43.11893" lon="5.73936">
        <ele>1.58</ele>
        <time>2016-05-26T11:25:08Z</time>
      </trkpt>
      <trkpt lat="43.11922" lon="5.73991">
        <ele>2.06</ele>
        <time>2016-05-26T11:25:24Z</time>
      </trkpt>
      <trkpt lat="43.11958" lon="5.74052">
        <ele>1.58</ele>
        <time>2016-05-26T11:25:42Z</time>
      </trkpt>
      <trkpt lat="43.11997" lon="5.7412">
        <ele>2.06</ele>
        <time>2016-05-26T11:26:02Z</time>
      </trkpt>
      <trkpt lat="43.12027" lon="5.74176">
        <ele>2.06</ele>
        <time>2016-05-26T11:26:18Z</time>
      </trkpt>
      <trkpt lat="43.1206" lon="5.74238">
        <ele>2.06</ele>
        <time>2016-05-26T11:26:36Z</time>
      </trkpt>
      <trkpt lat="43.12093" lon="5.74304">
        <ele>2.06</ele>
        <time>2016-05-26T11:26:55Z</time>
      </trkpt>
      <trkpt lat="43.12123" lon="5.74361">
        <ele>2.06</ele>
        <time>2016-05-26T11:27:11Z</time>
      </trkpt>
      <trkpt lat="43.12151" lon="5.74421">
        <ele>1.1</ele>
        <time>2016-05-26T11:27:28Z</time>
      </trkpt>
      <trkpt lat="43.12182" lon="5.74483">
        <ele>1.58</ele>
        <time>2016-05-26T11:27:46Z</time>
      </trkpt>
      <trkpt lat="43.12208" lon="5.74537">
        <ele>2.06</ele>
        <time>2016-05-26T11:28:01Z</time>
      </trkpt>
      <trkpt lat="43.12233" lon="5.74588">
        <ele>1.58</ele>
        <time>2016-05-26T11:28:15Z</time>
      </trkpt>
      <trkpt lat="43.12266" lon="5.74659">
        <ele>1.58</ele>
        <time>2016-05-26T11:28:34Z</time>
      </trkpt>
      <trkpt lat="43.123" lon="5.74724">
        <ele>1.58</ele>
        <time>2016-05-26T11:28:51Z</time>
      </trkpt>
      <trkpt lat="43.12334" lon="5.74785">
        <ele>1.1</ele>
        <time>2016-05-26T11:29:07Z</time>
      </trkpt>
      <trkpt lat="43.1237" lon="5.74848">
        <ele>1.58</ele>
        <time>2016-05-26T11:29:24Z</time>
      </trkpt>
      <trkpt lat="43.124" lon="5.74906">
        <ele>1.58</ele>
        <time>2016-05-26T11:29:40Z</time>
      </trkpt>
      <trkpt lat="43.12426" lon="5.74957">
        <ele>1.58</ele>
        <time>2016-05-26T11:29:54Z</time>
      </trkpt>
      <trkpt lat="43.12453" lon="5.75014">
        <ele>0.62</ele>
        <time>2016-05-26T11:30:09Z</time>
      </trkpt>
      <trkpt lat="43.12487" lon="5.75085">
        <ele>2.06</ele>
        <time>2016-05-26T11:30:27Z</time>
      </trkpt>
      <trkpt lat="43.1252" lon="5.7515">
        <ele>2.54</ele>
        <time>2016-05-26T11:30:43Z</time>
      </trkpt>
      <trkpt lat="43.12554" lon="5.75225">
        <ele>2.54</ele>
        <time>2016-05-26T11:31:01Z</time>
      </trkpt>
      <trkpt lat="43.12595" lon="5.75309">
        <ele>2.54</ele>
        <time>2016-05-26T11:31:21Z</time>
      </trkpt>
      <trkpt lat="43.12634" lon="5.75389">
        <ele>2.54</ele>
        <time>2016-05-26T11:31:40Z</time>
      </trkpt>
      <trkpt lat="43.12671" lon="5.75463">
        <ele>2.54</ele>
        <time>2016-05-26T11:31:58Z</time>
      </trkpt>
      <trkpt lat="43.12708" lon="5.75542">
        <ele>1.58</ele>
        <time>2016-05-26T11:32:17Z</time>
      </trkpt>
      <trkpt lat="43.12762" lon="5.75631">
        <ele>1.58</ele>
        <time>2016-05-26T11:32:41Z</time>
      </trkpt>
      <trkpt lat="43.12817" lon="5.75678">
        <ele>1.1</ele>
        <time>2016-05-26T11:33:00Z</time>
      </trkpt>
      <trkpt lat="43.12878" lon="5.75706">
        <ele>1.58</ele>
        <time>2016-05-26T11:33:22Z</time>
      </trkpt>
      <trkpt lat="43.1293" lon="5.75738">
        <ele>1.58</ele>
        <time>2016-05-26T11:33:43Z</time>
      </trkpt>
      <trkpt lat="43.12991" lon="5.75765">
        <ele>2.06</ele>
        <time>2016-05-26T11:34:08Z</time>
      </trkpt>
      <trkpt lat="43.13038" lon="5.75787">
        <ele>1.58</ele>
        <time>2016-05-26T11:34:28Z</time>
      </trkpt>
      <trkpt lat="43.13094" lon="5.75813">
        <ele>1.1</ele>
        <time>2016-05-26T11:34:52Z</time>
      </trkpt>
      <trkpt lat="43.13139" lon="5.75838">
        <ele>2.54</ele>
        <time>2016-05-26T11:35:13Z</time>
      </trkpt>
      <trkpt lat="43.1318" lon="5.7586">
        <ele>2.06</ele>
        <time>2016-05-26T11:35:33Z</time>
      </trkpt>
      <trkpt lat="43.13232" lon="5.75887">
        <ele>2.54</ele>
        <time>2016-05-26T11:35:58Z</time>
      </trkpt>
      <trkpt lat="43.13277" lon="5.7591">
        <ele>2.54</ele>
        <time>2016-05-26T11:36:20Z</time>
      </trkpt>
      <trkpt lat="43.13322" lon="5.75933">
        <ele>2.54</ele>
        <time>2016-05-26T11:36:46Z</time>
      </trkpt>
      <trkpt lat="43.13364" lon="5.75958">
        <ele>2.06</ele>
        <time>2016-05-26T11:37:14Z</time>
      </trkpt>
      <trkpt lat="43.13401" lon="5.75985">
        <ele>1.1</ele>
        <time>2016-05-26T11:37:38Z</time>
      </trkpt>
      <trkpt lat="43.13434" lon="5.7602">
        <ele>0.62</ele>
        <time>2016-05-26T11:37:59Z</time>
      </trkpt>
      <trkpt lat="43.13449" lon="5.76049">
        <ele>-0.34</ele>
        <time>2016-05-26T11:38:14Z</time>
      </trkpt>
      <trkpt lat="43.1345" lon="5.76083">
        <ele>0.14</ele>
        <time>2016-05-26T11:38:35Z</time>
      </trkpt>
      <trkpt lat="43.13449" lon="5.76105">
        <ele>0.62</ele>
        <time>2016-05-26T11:38:49Z</time>
      </trkpt>
      <trkpt lat="43.13446" lon="5.76123">
        <ele>-0.34</ele>
        <time>2016-05-26T11:39:02Z</time>
      </trkpt>
      <trkpt lat="43.13442" lon="5.7615">
        <ele>-0.34</ele>
        <time>2016-05-26T11:39:20Z</time>
      </trkpt>
      <trkpt lat="43.13435" lon="5.76176">
        <ele>0.14</ele>
        <time>2016-05-26T11:39:39Z</time>
      </trkpt>
      <trkpt lat="43.13431" lon="5.76201">
        <ele>1.58</ele>
        <time>2016-05-26T11:39:58Z</time>
      </trkpt>
      <trkpt lat="43.1343" lon="5.76209">
        <ele>1.58</ele>
        <time>2016-05-26T11:40:04Z</time>
      </trkpt>
      <trkpt lat="43.13433" lon="5.76234">
        <ele>0.62</ele>
        <time>2016-05-26T11:40:22Z</time>
      </trkpt>
      <trkpt lat="43.13435" lon="5.76262">
        <ele>1.1</ele>
        <time>2016-05-26T11:40:43Z</time>
      </trkpt>
      <trkpt lat="43.13435" lon="5.76289">
        <ele>1.1</ele>
        <time>2016-05-26T11:41:04Z</time>
      </trkpt>
      <trkpt lat="43.13433" lon="5.76319">
        <ele>2.54</ele>
        <time>2016-05-26T11:41:29Z</time>
      </trkpt>
      <trkpt lat="43.13429" lon="5.76344">
        <ele>4.46</ele>
        <time>2016-05-26T11:41:50Z</time>
      </trkpt>
      <trkpt lat="43.13427" lon="5.76365">
        <ele>3.5</ele>
        <time>2016-05-26T11:42:08Z</time>
      </trkpt>
      <trkpt lat="43.13422" lon="5.7638">
        <ele>2.54</ele>
        <time>2016-05-26T11:42:22Z</time>
      </trkpt>
      <trkpt lat="43.13409" lon="5.76404">
        <ele>1.1</ele>
        <time>2016-05-26T11:42:43Z</time>
      </trkpt>
      <trkpt lat="43.13399" lon="5.76431">
        <ele>1.1</ele>
        <time>2016-05-26T11:43:05Z</time>
      </trkpt>
      <trkpt lat="43.13387" lon="5.7645">
        <ele>0.14</ele>
        <time>2016-05-26T11:43:23Z</time>
      </trkpt>
      <trkpt lat="43.13381" lon="5.76458">
        <ele>0.62</ele>
        <time>2016-05-26T11:43:30Z</time>
      </trkpt>
      <trkpt lat="43.13367" lon="5.7648">
        <ele>0.62</ele>
        <time>2016-05-26T11:43:50Z</time>
      </trkpt>
      <trkpt lat="43.13358" lon="5.76503">
        <ele>0.62</ele>
        <time>2016-05-26T11:44:09Z</time>
      </trkpt>
      <trkpt lat="43.13353" lon="5.76524">
        <ele>1.1</ele>
        <time>2016-05-26T11:44:25Z</time>
      </trkpt>
      <trkpt lat="43.13351" lon="5.76549">
        <ele>0.14</ele>
        <time>2016-05-26T11:44:44Z</time>
      </trkpt>
      <trkpt lat="43.13351" lon="5.76552">
        <ele>-0.34</ele>
        <time>2016-05-26T11:44:46Z</time>
      </trkpt>
      <trkpt lat="43.1335" lon="5.76578">
        <ele>-0.82</ele>
        <time>2016-05-26T11:45:05Z</time>
      </trkpt>
      <trkpt lat="43.13344" lon="5.76601">
        <ele>0.14</ele>
        <time>2016-05-26T11:45:23Z</time>
      </trkpt>
      <trkpt lat="43.13338" lon="5.76623">
        <ele>1.1</ele>
        <time>2016-05-26T11:45:40Z</time>
      </trkpt>
      <trkpt lat="43.13331" lon="5.76642">
        <ele>1.1</ele>
        <time>2016-05-26T11:45:56Z</time>
      </trkpt>
      <trkpt lat="43.13327" lon="5.76651">
        <ele>0.14</ele>
        <time>2016-05-26T11:46:03Z</time>
      </trkpt>
      <trkpt lat="43.13317" lon="5.76674">
        <ele>0.14</ele>
        <time>2016-05-26T11:46:23Z</time>
      </trkpt>
      <trkpt lat="43.13307" lon="5.76685">
        <ele>0.62</ele>
        <time>2016-05-26T11:46:37Z</time>
      </trkpt>
      <trkpt lat="43.1329" lon="5.76684">
        <ele>0.62</ele>
        <time>2016-05-26T11:46:55Z</time>
      </trkpt>
      <trkpt lat="43.1328" lon="5.76666">
        <ele>1.1</ele>
        <time>2016-05-26T11:47:12Z</time>
      </trkpt>
      <trkpt lat="43.13278" lon="5.76638">
        <ele>1.58</ele>
        <time>2016-05-26T11:47:29Z</time>
      </trkpt>
      <trkpt lat="43.13266" lon="5.76605">
        <ele>1.58</ele>
        <time>2016-05-26T11:47:51Z</time>
      </trkpt>
      <trkpt lat="43.13253" lon="5.76578">
        <ele>1.58</ele>
        <time>2016-05-26T11:48:11Z</time>
      </trkpt>
      <trkpt lat="43.13243" lon="5.76543">
        <ele>2.06</ele>
        <time>2016-05-26T11:48:32Z</time>
      </trkpt>
      <trkpt lat="43.13242" lon="5.76507">
        <ele>1.1</ele>
        <time>2016-05-26T11:48:53Z</time>
      </trkpt>
      <trkpt lat="43.13243" lon="5.76478">
        <ele>1.1</ele>
        <time>2016-05-26T11:49:09Z</time>
      </trkpt>
      <trkpt lat="43.1325" lon="5.76446">
        <ele>1.58</ele>
        <time>2016-05-26T11:49:27Z</time>
      </trkpt>
      <trkpt lat="43.13265" lon="5.76415">
        <ele>1.58</ele>
        <time>2016-05-26T11:49:47Z</time>
      </trkpt>
      <trkpt lat="43.1328" lon="5.76384">
        <ele>2.06</ele>
        <time>2016-05-26T11:50:06Z</time>
      </trkpt>
      <trkpt lat="43.1329" lon="5.76353">
        <ele>2.06</ele>
        <time>2016-05-26T11:50:24Z</time>
      </trkpt>
      <trkpt lat="43.133" lon="5.76315">
        <ele>1.1</ele>
        <time>2016-05-26T11:50:45Z</time>
      </trkpt>
      <trkpt lat="43.1331" lon="5.76285">
        <ele>0.62</ele>
        <time>2016-05-26T11:51:02Z</time>
      </trkpt>
      <trkpt lat="43.13323" lon="5.76247">
        <ele>0.62</ele>
        <time>2016-05-26T11:51:23Z</time>
      </trkpt>
      <trkpt lat="43.13331" lon="5.76215">
        <ele>1.1</ele>
        <time>2016-05-26T11:51:40Z</time>
      </trkpt>
      <trkpt lat="43.13318" lon="5.76194">
        <ele>-0.34</ele>
        <time>2016-05-26T11:51:57Z</time>
      </trkpt>
      <trkpt lat="43.13306" lon="5.76192">
        <ele>1.1</ele>
        <time>2016-05-26T11:52:10Z</time>
      </trkpt>
      <trkpt lat="43.13297" lon="5.76204">
        <ele>1.58</ele>
        <time>2016-05-26T11:52:27Z</time>
      </trkpt>
      <trkpt lat="43.13293" lon="5.76221">
        <ele>1.58</ele>
        <time>2016-05-26T11:52:43Z</time>
      </trkpt>
      <trkpt lat="43.13293" lon="5.76227">
        <ele>1.58</ele>
        <time>2016-05-26T11:52:48Z</time>
      </trkpt>
      <trkpt lat="43.13288" lon="5.76247">
        <ele>2.06</ele>
        <time>2016-05-26T11:53:06Z</time>
      </trkpt>
      <trkpt lat="43.13275" lon="5.7626">
        <ele>1.1</ele>
        <time>2016-05-26T11:53:26Z</time>
      </trkpt>
      <trkpt lat="43.13262" lon="5.76272">
        <ele>2.54</ele>
        <time>2016-05-26T11:53:46Z</time>
      </trkpt>
      <trkpt lat="43.1326" lon="5.76294">
        <ele>2.06</ele>
        <time>2016-05-26T11:54:04Z</time>
      </trkpt>
      <trkpt lat="43.1326" lon="5.76322">
        <ele>2.06</ele>
        <time>2016-05-26T11:54:26Z</time>
      </trkpt>
      <trkpt lat="43.13253" lon="5.76342">
        <ele>1.58</ele>
        <time>2016-05-26T11:54:45Z</time>
      </trkpt>
      <trkpt lat="43.13249" lon="5.76348">
        <ele>2.06</ele>
        <time>2016-05-26T11:54:51Z</time>
      </trkpt>
      <trkpt lat="43.13238" lon="5.76358">
        <ele>2.06</ele>
        <time>2016-05-26T11:55:08Z</time>
      </trkpt>
      <trkpt lat="43.13227" lon="5.7636">
        <ele>0.62</ele>
        <time>2016-05-26T11:55:24Z</time>
      </trkpt>
      <trkpt lat="43.13215" lon="5.76364">
        <ele>0.14</ele>
        <time>2016-05-26T11:55:42Z</time>
      </trkpt>
      <trkpt lat="43.13204" lon="5.76375">
        <ele>0.62</ele>
        <time>2016-05-26T11:56:00Z</time>
      </trkpt>
      <trkpt lat="43.13196" lon="5.76388">
        <ele>2.06</ele>
        <time>2016-05-26T11:56:17Z</time>
      </trkpt>
      <trkpt lat="43.13187" lon="5.764">
        <ele>2.06</ele>
        <time>2016-05-26T11:56:35Z</time>
      </trkpt>
      <trkpt lat="43.13176" lon="5.7641">
        <ele>2.54</ele>
        <time>2016-05-26T11:56:53Z</time>
      </trkpt>
      <trkpt lat="43.13164" lon="5.7642">
        <ele>1.58</ele>
        <time>2016-05-26T11:57:14Z</time>
      </trkpt>
      <trkpt lat="43.13154" lon="5.76425">
        <ele>1.1</ele>
        <time>2016-05-26T11:57:31Z</time>
      </trkpt>
      <trkpt lat="43.13143" lon="5.76426">
        <ele>1.1</ele>
        <time>2016-05-26T11:57:50Z</time>
      </trkpt>
      <trkpt lat="43.13132" lon="5.76424">
        <ele>0.62</ele>
        <time>2016-05-26T11:58:07Z</time>
      </trkpt>
      <trkpt lat="43.13122" lon="5.76425">
        <ele>-0.82</ele>
        <time>2016-05-26T11:58:23Z</time>
      </trkpt>
      <trkpt lat="43.13112" lon="5.76428">
        <ele>-0.34</ele>
        <time>2016-05-26T11:58:41Z</time>
      </trkpt>
      <trkpt lat="43.13104" lon="5.76434">
        <ele>0.62</ele>
        <time>2016-05-26T11:58:58Z</time>
      </trkpt>
      <trkpt lat="43.13099" lon="5.76443">
        <ele>1.58</ele>
        <time>2016-05-26T11:59:13Z</time>
      </trkpt>
      <trkpt lat="43.13098" lon="5.76456">
        <ele>1.58</ele>
        <time>2016-05-26T11:59:23Z</time>
      </trkpt>
      <trkpt lat="43.131" lon="5.76487">
        <ele>1.1</ele>
        <time>2016-05-26T11:59:43Z</time>
      </trkpt>
      <trkpt lat="43.13129" lon="5.76509">
        <ele>2.54</ele>
        <time>2016-05-26T12:00:06Z</time>
      </trkpt>
      <trkpt lat="43.13153" lon="5.76531">
        <ele>2.06</ele>
        <time>2016-05-26T12:00:27Z</time>
      </trkpt>
      <trkpt lat="43.13179" lon="5.76557">
        <ele>2.06</ele>
        <time>2016-05-26T12:00:50Z</time>
      </trkpt>
      <trkpt lat="43.13201" lon="5.76578">
        <ele>1.58</ele>
        <time>2016-05-26T12:01:09Z</time>
      </trkpt>
      <trkpt lat="43.13226" lon="5.76607">
        <ele>1.58</ele>
        <time>2016-05-26T12:01:33Z</time>
      </trkpt>
      <trkpt lat="43.13248" lon="5.76635">
        <ele>0.62</ele>
        <time>2016-05-26T12:01:55Z</time>
      </trkpt>
      <trkpt lat="43.13261" lon="5.76658">
        <ele>1.58</ele>
        <time>2016-05-26T12:02:13Z</time>
      </trkpt>
      <trkpt lat="43.13273" lon="5.76682">
        <ele>1.1</ele>
        <time>2016-05-26T12:02:32Z</time>
      </trkpt>
      <trkpt lat="43.13284" lon="5.76704">
        <ele>1.1</ele>
        <time>2016-05-26T12:02:50Z</time>
      </trkpt>
      <trkpt lat="43.13294" lon="5.76731">
        <ele>2.54</ele>
        <time>2016-05-26T12:03:12Z</time>
      </trkpt>
      <trkpt lat="43.13302" lon="5.76756">
        <ele>1.58</ele>
        <time>2016-05-26T12:03:31Z</time>
      </trkpt>
      <trkpt lat="43.1331" lon="5.76781">
        <ele>0.62</ele>
        <time>2016-05-26T12:03:51Z</time>
      </trkpt>
      <trkpt lat="43.13322" lon="5.76809">
        <ele>1.58</ele>
        <time>2016-05-26T12:04:12Z</time>
      </trkpt>
      <trkpt lat="43.13333" lon="5.76835">
        <ele>1.1</ele>
        <time>2016-05-26T12:04:31Z</time>
      </trkpt>
      <trkpt lat="43.13335" lon="5.76841">
        <ele>1.1</ele>
        <time>2016-05-26T12:04:35Z</time>
      </trkpt>
      <trkpt lat="43.13341" lon="5.76852">
        <ele>0.62</ele>
        <time>2016-05-26T12:04:43Z</time>
      </trkpt>
      <trkpt lat="43.13354" lon="5.76874">
        <ele>1.58</ele>
        <time>2016-05-26T12:04:59Z</time>
      </trkpt>
      <trkpt lat="43.13371" lon="5.76904">
        <ele>1.1</ele>
        <time>2016-05-26T12:05:20Z</time>
      </trkpt>
      <trkpt lat="43.13385" lon="5.76927">
        <ele>1.58</ele>
        <time>2016-05-26T12:05:37Z</time>
      </trkpt>
      <trkpt lat="43.13398" lon="5.76952">
        <ele>1.1</ele>
        <time>2016-05-26T12:05:56Z</time>
      </trkpt>
      <trkpt lat="43.13388" lon="5.76968">
        <ele>-0.34</ele>
        <time>2016-05-26T12:06:16Z</time>
      </trkpt>
      <trkpt lat="43.13377" lon="5.76972">
        <ele>-2.27</ele>
        <time>2016-05-26T12:06:30Z</time>
      </trkpt>
      <trkpt lat="43.13364" lon="5.76975">
        <ele>-1.79</ele>
        <time>2016-05-26T12:06:47Z</time>
      </trkpt>
      <trkpt lat="43.1335" lon="5.76982">
        <ele>-2.27</ele>
        <time>2016-05-26T12:07:06Z</time>
      </trkpt>
      <trkpt lat="43.13335" lon="5.76978">
        <ele>-2.75</ele>
        <time>2016-05-26T12:07:26Z</time>
      </trkpt>
      <trkpt lat="43.13319" lon="5.7697">
        <ele>-1.79</ele>
        <time>2016-05-26T12:07:45Z</time>
      </trkpt>
      <trkpt lat="43.13318" lon="5.7697">
        <ele>-1.79</ele>
        <time>2016-05-26T12:07:46Z</time>
      </trkpt>
      <trkpt lat="43.133" lon="5.76967">
        <ele>-1.3</ele>
        <time>2016-05-26T12:08:03Z</time>
      </trkpt>
      <trkpt lat="43.13277" lon="5.76961">
        <ele>-1.3</ele>
        <time>2016-05-26T12:08:22Z</time>
      </trkpt>
      <trkpt lat="43.13254" lon="5.76949">
        <ele>-0.82</ele>
        <time>2016-05-26T12:08:41Z</time>
      </trkpt>
      <trkpt lat="43.13233" lon="5.76944">
        <ele>-0.82</ele>
        <time>2016-05-26T12:08:57Z</time>
      </trkpt>
      <trkpt lat="43.13209" lon="5.76938">
        <ele>-1.3</ele>
        <time>2016-05-26T12:09:16Z</time>
      </trkpt>
      <trkpt lat="43.13185" lon="5.76932">
        <ele>-2.27</ele>
        <time>2016-05-26T12:09:34Z</time>
      </trkpt>
      <trkpt lat="43.13161" lon="5.76924">
        <ele>-1.3</ele>
        <time>2016-05-26T12:09:53Z</time>
      </trkpt>
      <trkpt lat="43.13142" lon="5.76918">
        <ele>-1.3</ele>
        <time>2016-05-26T12:10:09Z</time>
      </trkpt>
      <trkpt lat="43.13116" lon="5.76911">
        <ele>-1.79</ele>
        <time>2016-05-26T12:10:31Z</time>
      </trkpt>
      <trkpt lat="43.131" lon="5.7691">
        <ele>-1.79</ele>
        <time>2016-05-26T12:10:45Z</time>
      </trkpt>
      <trkpt lat="43.1308" lon="5.76907">
        <ele>-1.79</ele>
        <time>2016-05-26T12:11:02Z</time>
      </trkpt>
      <trkpt lat="43.13054" lon="5.76901">
        <ele>-1.3</ele>
        <time>2016-05-26T12:11:22Z</time>
      </trkpt>
      <trkpt lat="43.13036" lon="5.76897">
        <ele>-0.82</ele>
        <time>2016-05-26T12:11:37Z</time>
      </trkpt>
      <trkpt lat="43.13016" lon="5.76894">
        <ele>-0.34</ele>
        <time>2016-05-26T12:11:54Z</time>
      </trkpt>
      <trkpt lat="43.12995" lon="5.76895">
        <ele>-0.82</ele>
        <time>2016-05-26T12:12:10Z</time>
      </trkpt>
      <trkpt lat="43.12977" lon="5.76896">
        <ele>-0.34</ele>
        <time>2016-05-26T12:12:25Z</time>
      </trkpt>
      <trkpt lat="43.12959" lon="5.76898">
        <ele>-1.3</ele>
        <time>2016-05-26T12:12:39Z</time>
      </trkpt>
      <trkpt lat="43.12941" lon="5.76898">
        <ele>-1.3</ele>
        <time>2016-05-26T12:12:55Z</time>
      </trkpt>
      <trkpt lat="43.12917" lon="5.76899">
        <ele>0.14</ele>
        <time>2016-05-26T12:13:14Z</time>
      </trkpt>
      <trkpt lat="43.12897" lon="5.769">
        <ele>-0.34</ele>
        <time>2016-05-26T12:13:31Z</time>
      </trkpt>
      <trkpt lat="43.12882" lon="5.76903">
        <ele>-0.82</ele>
        <time>2016-05-26T12:13:45Z</time>
      </trkpt>
      <trkpt lat="43.12872" lon="5.76905">
        <ele>-1.79</ele>
        <time>2016-05-26T12:13:55Z</time>
      </trkpt>
      <trkpt lat="43.12853" lon="5.76906">
        <ele>-2.27</ele>
        <time>2016-05-26T12:14:11Z</time>
      </trkpt>
      <trkpt lat="43.12833" lon="5.7691">
        <ele>-1.3</ele>
        <time>2016-05-26T12:14:28Z</time>
      </trkpt>
      <trkpt lat="43.12816" lon="5.76918">
        <ele>-0.82</ele>
        <time>2016-05-26T12:14:43Z</time>
      </trkpt>
      <trkpt lat="43.12798" lon="5.76923">
        <ele>-0.34</ele>
        <time>2016-05-26T12:14:58Z</time>
      </trkpt>
      <trkpt lat="43.12789" lon="5.76925">
        <ele>-0.82</ele>
        <time>2016-05-26T12:15:06Z</time>
      </trkpt>
      <trkpt lat="43.12786" lon="5.7695">
        <ele>0.14</ele>
        <time>2016-05-26T12:15:23Z</time>
      </trkpt>
      <trkpt lat="43.12799" lon="5.76988">
        <ele>-0.34</ele>
        <time>2016-05-26T12:15:47Z</time>
      </trkpt>
      <trkpt lat="43.12811" lon="5.77027">
        <ele>-0.34</ele>
        <time>2016-05-26T12:16:08Z</time>
      </trkpt>
      <trkpt lat="43.1282" lon="5.77066">
        <ele>0.62</ele>
        <time>2016-05-26T12:16:28Z</time>
      </trkpt>
      <trkpt lat="43.12833" lon="5.77108">
        <ele>2.06</ele>
        <time>2016-05-26T12:16:49Z</time>
      </trkpt>
      <trkpt lat="43.12847" lon="5.77144">
        <ele>1.58</ele>
        <time>2016-05-26T12:17:07Z</time>
      </trkpt>
      <trkpt lat="43.12869" lon="5.77185">
        <ele>1.58</ele>
        <time>2016-05-26T12:17:29Z</time>
      </trkpt>
      <trkpt lat="43.1289" lon="5.77235">
        <ele>0.62</ele>
        <time>2016-05-26T12:17:54Z</time>
      </trkpt>
      <trkpt lat="43.12909" lon="5.77278">
        <ele>2.06</ele>
        <time>2016-05-26T12:18:15Z</time>
      </trkpt>
      <trkpt lat="43.12938" lon="5.77325">
        <ele>1.58</ele>
        <time>2016-05-26T12:18:41Z</time>
      </trkpt>
      <trkpt lat="43.12954" lon="5.77369">
        <ele>3.02</ele>
        <time>2016-05-26T12:19:04Z</time>
      </trkpt>
      <trkpt lat="43.12959" lon="5.77413">
        <ele>0.62</ele>
        <time>2016-05-26T12:19:27Z</time>
      </trkpt>
      <trkpt lat="43.12963" lon="5.77454">
        <ele>-0.34</ele>
        <time>2016-05-26T12:19:50Z</time>
      </trkpt>
      <trkpt lat="43.1297" lon="5.77495">
        <ele>-1.79</ele>
        <time>2016-05-26T12:20:15Z</time>
      </trkpt>
      <trkpt lat="43.12977" lon="5.77542">
        <ele>-0.82</ele>
        <time>2016-05-26T12:20:44Z</time>
      </trkpt>
      <trkpt lat="43.12976" lon="5.77576">
        <ele>-1.3</ele>
        <time>2016-05-26T12:21:05Z</time>
      </trkpt>
      <trkpt lat="43.12972" lon="5.77619">
        <ele>-0.34</ele>
        <time>2016-05-26T12:21:36Z</time>
      </trkpt>
      <trkpt lat="43.12969" lon="5.77634">
        <ele>-0.34</ele>
        <time>2016-05-26T12:22:00Z</time>
      </trkpt>
      <trkpt lat="43.1297" lon="5.77635">
        <ele>0.14</ele>
        <time>2016-05-26T12:22:25Z</time>
      </trkpt>
      <trkpt lat="43.12972" lon="5.77631">
        <ele>-0.34</ele>
        <time>2016-05-26T12:22:49Z</time>
      </trkpt>
      <trkpt lat="43.12973" lon="5.77629">
        <ele>-1.3</ele>
        <time>2016-05-26T12:23:11Z</time>
      </trkpt>
      <trkpt lat="43.12974" lon="5.77632">
        <ele>-1.3</ele>
        <time>2016-05-26T12:23:38Z</time>
      </trkpt>
      <trkpt lat="43.12976" lon="5.77635">
        <ele>-1.3</ele>
        <time>2016-05-26T12:24:04Z</time>
      </trkpt>
      <trkpt lat="43.12978" lon="5.77637">
        <ele>-1.3</ele>
        <time>2016-05-26T12:24:25Z</time>
      </trkpt>
      <trkpt lat="43.1298" lon="5.7764">
        <ele>-1.3</ele>
        <time>2016-05-26T12:24:50Z</time>
      </trkpt>
      <trkpt lat="43.12981" lon="5.7764">
        <ele>-1.79</ele>
        <time>2016-05-26T12:25:08Z</time>
      </trkpt>
      <trkpt lat="43.12982" lon="5.7764">
        <ele>-1.79</ele>
        <time>2016-05-26T12:25:27Z</time>
      </trkpt>
      <trkpt lat="43.12982" lon="5.77639">
        <ele>-1.79</ele>
        <time>2016-05-26T12:25:50Z</time>
      </trkpt>
      <trkpt lat="43.12982" lon="5.77638">
        <ele>-1.79</ele>
        <time>2016-05-26T12:26:16Z</time>
      </trkpt>
      <trkpt lat="43.12982" lon="5.77636">
        <ele>-1.79</ele>
        <time>2016-05-26T12:26:40Z</time>
      </trkpt>
      <trkpt lat="43.12983" lon="5.77636">
        <ele>-1.79</ele>
        <time>2016-05-26T12:27:07Z</time>
      </trkpt>
      <trkpt lat="43.12982" lon="5.77637">
        <ele>-1.3</ele>
        <time>2016-05-26T12:27:32Z</time>
      </trkpt>
      <trkpt lat="43.12981" lon="5.77636">
        <ele>-1.3</ele>
        <time>2016-05-26T12:27:53Z</time>
      </trkpt>
      <trkpt lat="43.1298" lon="5.77633">
        <ele>-1.3</ele>
        <time>2016-05-26T12:28:19Z</time>
      </trkpt>
      <trkpt lat="43.12977" lon="5.77632">
        <ele>-2.27</ele>
        <time>2016-05-26T12:28:45Z</time>
      </trkpt>
      <trkpt lat="43.12977" lon="5.7763">
        <ele>-2.75</ele>
        <time>2016-05-26T12:29:11Z</time>
      </trkpt>
      <trkpt lat="43.12977" lon="5.77629">
        <ele>-2.75</ele>
        <time>2016-05-26T12:29:30Z</time>
      </trkpt>
      <trkpt lat="43.12977" lon="5.77629">
        <ele>-2.27</ele>
        <time>2016-05-26T12:29:54Z</time>
      </trkpt>
      <trkpt lat="43.12978" lon="5.77629">
        <ele>-2.27</ele>
        <time>2016-05-26T12:30:19Z</time>
      </trkpt>
      <trkpt lat="43.12979" lon="5.77631">
        <ele>-2.27</ele>
        <time>2016-05-26T12:30:44Z</time>
      </trkpt>
      <trkpt lat="43.12981" lon="5.77633">
        <ele>-2.27</ele>
        <time>2016-05-26T12:31:10Z</time>
      </trkpt>
      <trkpt lat="43.12981" lon="5.77633">
        <ele>-1.79</ele>
        <time>2016-05-26T12:31:33Z</time>
      </trkpt>
      <trkpt lat="43.12981" lon="5.77632">
        <ele>-1.79</ele>
        <time>2016-05-26T12:31:56Z</time>
      </trkpt>
      <trkpt lat="43.1298" lon="5.77631">
        <ele>-2.75</ele>
        <time>2016-05-26T12:32:22Z</time>
      </trkpt>
      <trkpt lat="43.12979" lon="5.7763">
        <ele>-2.75</ele>
        <time>2016-05-26T12:32:39Z</time>
      </trkpt>
      <trkpt lat="43.12979" lon="5.77631">
        <ele>-2.75</ele>
        <time>2016-05-26T12:32:59Z</time>
      </trkpt>
      <trkpt lat="43.12979" lon="5.7763">
        <ele>-2.75</ele>
        <time>2016-05-26T12:33:22Z</time>
      </trkpt>
      <trkpt lat="43.12979" lon="5.7763">
        <ele>-2.27</ele>
        <time>2016-05-26T12:33:46Z</time>
      </trkpt>
      <trkpt lat="43.12978" lon="5.7763">
        <ele>-1.79</ele>
        <time>2016-05-26T12:34:10Z</time>
      </trkpt>
      <trkpt lat="43.12976" lon="5.77629">
        <ele>-2.27</ele>
        <time>2016-05-26T12:34:37Z</time>
      </trkpt>
      <trkpt lat="43.12975" lon="5.77628">
        <ele>-2.75</ele>
        <time>2016-05-26T12:35:00Z</time>
      </trkpt>
      <trkpt lat="43.12974" lon="5.77627">
        <ele>-3.23</ele>
        <time>2016-05-26T12:35:22Z</time>
      </trkpt>
      <trkpt lat="43.12974" lon="5.77627">
        <ele>-3.71</ele>
        <time>2016-05-26T12:35:44Z</time>
      </trkpt>
      <trkpt lat="43.12974" lon="5.77626">
        <ele>-3.23</ele>
        <time>2016-05-26T12:36:11Z</time>
      </trkpt>
      <trkpt lat="43.12974" lon="5.77627">
        <ele>-3.23</ele>
        <time>2016-05-26T12:36:36Z</time>
      </trkpt>
      <trkpt lat="43.12976" lon="5.77628">
        <ele>-2.75</ele>
        <time>2016-05-26T12:36:55Z</time>
      </trkpt>
      <trkpt lat="43.12977" lon="5.77629">
        <ele>-2.27</ele>
        <time>2016-05-26T12:37:18Z</time>
      </trkpt>
      <trkpt lat="43.12978" lon="5.77629">
        <ele>-2.27</ele>
        <time>2016-05-26T12:37:38Z</time>
      </trkpt>
      <trkpt lat="43.12979" lon="5.7763">
        <ele>-2.27</ele>
        <time>2016-05-26T12:38:01Z</time>
      </trkpt>
      <trkpt lat="43.12979" lon="5.77631">
        <ele>-2.27</ele>
        <time>2016-05-26T12:38:25Z</time>
      </trkpt>
      <trkpt lat="43.1298" lon="5.77632">
        <ele>-2.27</ele>
        <time>2016-05-26T12:38:49Z</time>
      </trkpt>
      <trkpt lat="43.12981" lon="5.77633">
        <ele>-1.79</ele>
        <time>2016-05-26T12:39:11Z</time>
      </trkpt>
      <trkpt lat="43.12982" lon="5.77634">
        <ele>-1.3</ele>
        <time>2016-05-26T12:39:36Z</time>
      </trkpt>
      <trkpt lat="43.12982" lon="5.77634">
        <ele>-1.79</ele>
        <time>2016-05-26T12:39:58Z</time>
      </trkpt>
      <trkpt lat="43.12981" lon="5.77632">
        <ele>-1.3</ele>
        <time>2016-05-26T12:40:21Z</time>
      </trkpt>
      <trkpt lat="43.12981" lon="5.77631">
        <ele>-2.27</ele>
        <time>2016-05-26T12:40:49Z</time>
      </trkpt>
      <trkpt lat="43.1298" lon="5.77631">
        <ele>-2.27</ele>
        <time>2016-05-26T12:41:12Z</time>
      </trkpt>
      <trkpt lat="43.1298" lon="5.7763">
        <ele>-2.75</ele>
        <time>2016-05-26T12:41:33Z</time>
      </trkpt>
      <trkpt lat="43.12979" lon="5.77629">
        <ele>-2.75</ele>
        <time>2016-05-26T12:41:56Z</time>
      </trkpt>
      <trkpt lat="43.12977" lon="5.77628">
        <ele>-2.75</ele>
        <time>2016-05-26T12:42:22Z</time>
      </trkpt>
      <trkpt lat="43.12976" lon="5.77627">
        <ele>-2.75</ele>
        <time>2016-05-26T12:42:50Z</time>
      </trkpt>
      <trkpt lat="43.12975" lon="5.77626">
        <ele>-2.75</ele>
        <time>2016-05-26T12:43:16Z</time>
      </trkpt>
      <trkpt lat="43.12975" lon="5.77627">
        <ele>-2.75</ele>
        <time>2016-05-26T12:43:41Z</time>
      </trkpt>
      <trkpt lat="43.12977" lon="5.77628">
        <ele>-2.27</ele>
        <time>2016-05-26T12:44:03Z</time>
      </trkpt>
      <trkpt lat="43.12978" lon="5.77629">
        <ele>-1.79</ele>
        <time>2016-05-26T12:44:25Z</time>
      </trkpt>
      <trkpt lat="43.1298" lon="5.77629">
        <ele>-1.79</ele>
        <time>2016-05-26T12:44:49Z</time>
      </trkpt>
      <trkpt lat="43.1298" lon="5.77629">
        <ele>-1.79</ele>
        <time>2016-05-26T12:45:11Z</time>
      </trkpt>
      <trkpt lat="43.1298" lon="5.77629">
        <ele>-2.27</ele>
        <time>2016-05-26T12:45:35Z</time>
      </trkpt>
      <trkpt lat="43.1298" lon="5.77629">
        <ele>-2.75</ele>
        <time>2016-05-26T12:45:57Z</time>
      </trkpt>
      <trkpt lat="43.12979" lon="5.77628">
        <ele>-2.27</ele>
        <time>2016-05-26T12:46:22Z</time>
      </trkpt>
      <trkpt lat="43.12978" lon="5.77628">
        <ele>-2.27</ele>
        <time>2016-05-26T12:46:41Z</time>
      </trkpt>
      <trkpt lat="43.12979" lon="5.77629">
        <ele>-2.27</ele>
        <time>2016-05-26T12:47:05Z</time>
      </trkpt>
      <trkpt lat="43.1298" lon="5.77629">
        <ele>-2.27</ele>
        <time>2016-05-26T12:47:27Z</time>
      </trkpt>
      <trkpt lat="43.1298" lon="5.7763">
        <ele>-2.27</ele>
        <time>2016-05-26T12:47:47Z</time>
      </trkpt>
      <trkpt lat="43.12981" lon="5.77631">
        <ele>-2.27</ele>
        <time>2016-05-26T12:48:09Z</time>
      </trkpt>
      <trkpt lat="43.12981" lon="5.7763">
        <ele>-2.75</ele>
        <time>2016-05-26T12:48:35Z</time>
      </trkpt>
      <trkpt lat="43.12981" lon="5.7763">
        <ele>-2.75</ele>
        <time>2016-05-26T12:48:54Z</time>
      </trkpt>
      <trkpt lat="43.1298" lon="5.7763">
        <ele>-3.23</ele>
        <time>2016-05-26T12:49:17Z</time>
      </trkpt>
      <trkpt lat="43.12979" lon="5.77628">
        <ele>-3.23</ele>
        <time>2016-05-26T12:49:40Z</time>
      </trkpt>
      <trkpt lat="43.12978" lon="5.77627">
        <ele>-3.23</ele>
        <time>2016-05-26T12:50:05Z</time>
      </trkpt>
      <trkpt lat="43.12977" lon="5.77626">
        <ele>-3.23</ele>
        <time>2016-05-26T12:50:30Z</time>
      </trkpt>
      <trkpt lat="43.12977" lon="5.77626">
        <ele>-2.75</ele>
        <time>2016-05-26T12:50:54Z</time>
      </trkpt>
      <trkpt lat="43.12977" lon="5.77626">
        <ele>-2.75</ele>
        <time>2016-05-26T12:51:14Z</time>
      </trkpt>
      <trkpt lat="43.12977" lon="5.77626">
        <ele>-2.75</ele>
        <time>2016-05-26T12:51:34Z</time>
      </trkpt>
      <trkpt lat="43.12977" lon="5.77626">
        <ele>-2.75</ele>
        <time>2016-05-26T12:52:02Z</time>
      </trkpt>
      <trkpt lat="43.12976" lon="5.77625">
        <ele>-2.27</ele>
        <time>2016-05-26T12:52:24Z</time>
      </trkpt>
      <trkpt lat="43.12974" lon="5.77625">
        <ele>-2.27</ele>
        <time>2016-05-26T12:52:50Z</time>
      </trkpt>
      <trkpt lat="43.12973" lon="5.77624">
        <ele>-1.3</ele>
        <time>2016-05-26T12:53:13Z</time>
      </trkpt>
      <trkpt lat="43.12974" lon="5.77625">
        <ele>-0.82</ele>
        <time>2016-05-26T12:53:34Z</time>
      </trkpt>
      <trkpt lat="43.12976" lon="5.77625">
        <ele>-1.3</ele>
        <time>2016-05-26T12:53:59Z</time>
      </trkpt>
      <trkpt lat="43.12977" lon="5.77627">
        <ele>-0.82</ele>
        <time>2016-05-26T12:54:19Z</time>
      </trkpt>
      <trkpt lat="43.12979" lon="5.77629">
        <ele>-1.3</ele>
        <time>2016-05-26T12:54:45Z</time>
      </trkpt>
      <trkpt lat="43.1298" lon="5.7763">
        <ele>-0.82</ele>
        <time>2016-05-26T12:55:10Z</time>
      </trkpt>
      <trkpt lat="43.12981" lon="5.7763">
        <ele>-1.3</ele>
        <time>2016-05-26T12:55:31Z</time>
      </trkpt>
      <trkpt lat="43.1298" lon="5.77631">
        <ele>-1.3</ele>
        <time>2016-05-26T12:55:50Z</time>
      </trkpt>
      <trkpt lat="43.12981" lon="5.77632">
        <ele>-1.3</ele>
        <time>2016-05-26T12:56:17Z</time>
      </trkpt>
      <trkpt lat="43.12981" lon="5.77632">
        <ele>-1.3</ele>
        <time>2016-05-26T12:56:37Z</time>
      </trkpt>
      <trkpt lat="43.1298" lon="5.7763">
        <ele>-1.3</ele>
        <time>2016-05-26T12:57:04Z</time>
      </trkpt>
      <trkpt lat="43.12979" lon="5.77629">
        <ele>-1.3</ele>
        <time>2016-05-26T12:57:24Z</time>
      </trkpt>
      <trkpt lat="43.12979" lon="5.7763">
        <ele>-1.3</ele>
        <time>2016-05-26T12:57:46Z</time>
      </trkpt>
      <trkpt lat="43.1298" lon="5.77633">
        <ele>-1.3</ele>
        <time>2016-05-26T12:58:08Z</time>
      </trkpt>
      <trkpt lat="43.12977" lon="5.77635">
        <ele>-1.79</ele>
        <time>2016-05-26T12:58:30Z</time>
      </trkpt>
      <trkpt lat="43.12962" lon="5.77637">
        <ele>-1.79</ele>
        <time>2016-05-26T12:58:53Z</time>
      </trkpt>
      <trkpt lat="43.12953" lon="5.77644">
        <ele>-1.79</ele>
        <time>2016-05-26T12:59:11Z</time>
      </trkpt>
      <trkpt lat="43.12947" lon="5.77642">
        <ele>-2.27</ele>
        <time>2016-05-26T12:59:19Z</time>
      </trkpt>
      <trkpt lat="43.12945" lon="5.77609">
        <ele>-1.3</ele>
        <time>2016-05-26T12:59:40Z</time>
      </trkpt>
      <trkpt lat="43.12951" lon="5.77555">
        <ele>0.14</ele>
        <time>2016-05-26T13:00:05Z</time>
      </trkpt>
      <trkpt lat="43.12948" lon="5.77497">
        <ele>-0.34</ele>
        <time>2016-05-26T13:00:28Z</time>
      </trkpt>
      <trkpt lat="43.12947" lon="5.7743">
        <ele>0.14</ele>
        <time>2016-05-26T13:00:53Z</time>
      </trkpt>
      <trkpt lat="43.12957" lon="5.77361">
        <ele>0.14</ele>
        <time>2016-05-26T13:01:19Z</time>
      </trkpt>
      <trkpt lat="43.12972" lon="5.77309">
        <ele>-1.3</ele>
        <time>2016-05-26T13:01:39Z</time>
      </trkpt>
      <trkpt lat="43.12988" lon="5.77253">
        <ele>-0.82</ele>
        <time>2016-05-26T13:02:01Z</time>
      </trkpt>
      <trkpt lat="43.13003" lon="5.77206">
        <ele>-1.3</ele>
        <time>2016-05-26T13:02:21Z</time>
      </trkpt>
      <trkpt lat="43.13016" lon="5.77152">
        <ele>-1.3</ele>
        <time>2016-05-26T13:02:42Z</time>
      </trkpt>
      <trkpt lat="43.13024" lon="5.77106">
        <ele>-0.82</ele>
        <time>2016-05-26T13:03:00Z</time>
      </trkpt>
      <trkpt lat="43.13031" lon="5.77053">
        <ele>-0.82</ele>
        <time>2016-05-26T13:03:20Z</time>
      </trkpt>
      <trkpt lat="43.13048" lon="5.76999">
        <ele>-1.3</ele>
        <time>2016-05-26T13:03:36Z</time>
      </trkpt>
      <trkpt lat="43.13076" lon="5.76907">
        <ele>-1.79</ele>
        <time>2016-05-26T13:04:00Z</time>
      </trkpt>
      <trkpt lat="43.13099" lon="5.76835">
        <ele>-2.75</ele>
        <time>2016-05-26T13:04:19Z</time>
      </trkpt>
      <trkpt lat="43.13116" lon="5.76766">
        <ele>-2.75</ele>
        <time>2016-05-26T13:04:38Z</time>
      </trkpt>
      <trkpt lat="43.13129" lon="5.76708">
        <ele>-1.79</ele>
        <time>2016-05-26T13:04:57Z</time>
      </trkpt>
      <trkpt lat="43.13149" lon="5.76661">
        <ele>-2.75</ele>
        <time>2016-05-26T13:05:16Z</time>
      </trkpt>
      <trkpt lat="43.13176" lon="5.76609">
        <ele>-2.75</ele>
        <time>2016-05-26T13:05:38Z</time>
      </trkpt>
      <trkpt lat="43.13195" lon="5.76565">
        <ele>-2.27</ele>
        <time>2016-05-26T13:05:54Z</time>
      </trkpt>
      <trkpt lat="43.13216" lon="5.7651">
        <ele>-2.27</ele>
        <time>2016-05-26T13:06:12Z</time>
      </trkpt>
      <trkpt lat="43.13233" lon="5.76459">
        <ele>-2.27</ele>
        <time>2016-05-26T13:06:28Z</time>
      </trkpt>
      <trkpt lat="43.13243" lon="5.76398">
        <ele>-1.79</ele>
        <time>2016-05-26T13:06:46Z</time>
      </trkpt>
      <trkpt lat="43.13246" lon="5.7634">
        <ele>-0.82</ele>
        <time>2016-05-26T13:07:03Z</time>
      </trkpt>
      <trkpt lat="43.13244" lon="5.76263">
        <ele>0.14</ele>
        <time>2016-05-26T13:07:23Z</time>
      </trkpt>
      <trkpt lat="43.13245" lon="5.76174">
        <ele>0.62</ele>
        <time>2016-05-26T13:07:44Z</time>
      </trkpt>
      <trkpt lat="43.1325" lon="5.76097">
        <ele>0.62</ele>
        <time>2016-05-26T13:08:02Z</time>
      </trkpt>
      <trkpt lat="43.13268" lon="5.76037">
        <ele>-0.82</ele>
        <time>2016-05-26T13:08:17Z</time>
      </trkpt>
      <trkpt lat="43.13274" lon="5.75965">
        <ele>-0.82</ele>
        <time>2016-05-26T13:08:34Z</time>
      </trkpt>
      <trkpt lat="43.13275" lon="5.759">
        <ele>-1.79</ele>
        <time>2016-05-26T13:08:50Z</time>
      </trkpt>
      <trkpt lat="43.1327" lon="5.75844">
        <ele>-0.82</ele>
        <time>2016-05-26T13:09:04Z</time>
      </trkpt>
      <trkpt lat="43.13257" lon="5.75854">
        <ele>-0.82</ele>
        <time>2016-05-26T13:09:17Z</time>
      </trkpt>
      <trkpt lat="43.13255" lon="5.75878">
        <ele>-0.82</ele>
        <time>2016-05-26T13:09:34Z</time>
      </trkpt>
      <trkpt lat="43.13247" lon="5.75919">
        <ele>-0.34</ele>
        <time>2016-05-26T13:09:51Z</time>
      </trkpt>
      <trkpt lat="43.13233" lon="5.75978">
        <ele>-0.82</ele>
        <time>2016-05-26T13:10:10Z</time>
      </trkpt>
      <trkpt lat="43.13218" lon="5.76032">
        <ele>-1.3</ele>
        <time>2016-05-26T13:10:28Z</time>
      </trkpt>
      <trkpt lat="43.1321" lon="5.76071">
        <ele>-2.75</ele>
        <time>2016-05-26T13:10:42Z</time>
      </trkpt>
      <trkpt lat="43.13201" lon="5.76123">
        <ele>-2.75</ele>
        <time>2016-05-26T13:10:58Z</time>
      </trkpt>
      <trkpt lat="43.13198" lon="5.76175">
        <ele>-3.71</ele>
        <time>2016-05-26T13:11:13Z</time>
      </trkpt>
      <trkpt lat="43.13196" lon="5.76226">
        <ele>-2.75</ele>
        <time>2016-05-26T13:11:26Z</time>
      </trkpt>
      <trkpt lat="43.13194" lon="5.76293">
        <ele>-3.23</ele>
        <time>2016-05-26T13:11:42Z</time>
      </trkpt>
      <trkpt lat="43.13193" lon="5.76352">
        <ele>-3.23</ele>
        <time>2016-05-26T13:11:56Z</time>
      </trkpt>
      <trkpt lat="43.13185" lon="5.76393">
        <ele>-3.71</ele>
        <time>2016-05-26T13:12:08Z</time>
      </trkpt>
      <trkpt lat="43.13157" lon="5.76389">
        <ele>-3.23</ele>
        <time>2016-05-26T13:12:23Z</time>
      </trkpt>
      <trkpt lat="43.13126" lon="5.76382">
        <ele>-2.75</ele>
        <time>2016-05-26T13:12:38Z</time>
      </trkpt>
      <trkpt lat="43.13097" lon="5.76373">
        <ele>-2.75</ele>
        <time>2016-05-26T13:12:50Z</time>
      </trkpt>
      <trkpt lat="43.13055" lon="5.76368">
        <ele>-2.27</ele>
        <time>2016-05-26T13:13:08Z</time>
      </trkpt>
      <trkpt lat="43.13003" lon="5.76358">
        <ele>-2.27</ele>
        <time>2016-05-26T13:13:27Z</time>
      </trkpt>
      <trkpt lat="43.12951" lon="5.7634">
        <ele>-2.75</ele>
        <time>2016-05-26T13:13:43Z</time>
      </trkpt>
      <trkpt lat="43.12889" lon="5.7632">
        <ele>-2.75</ele>
        <time>2016-05-26T13:14:02Z</time>
      </trkpt>
      <trkpt lat="43.1284" lon="5.76305">
        <ele>-2.75</ele>
        <time>2016-05-26T13:14:17Z</time>
      </trkpt>
      <trkpt lat="43.12799" lon="5.763">
        <ele>-1.3</ele>
        <time>2016-05-26T13:14:30Z</time>
      </trkpt>
      <trkpt lat="43.12757" lon="5.76294">
        <ele>-0.82</ele>
        <time>2016-05-26T13:14:43Z</time>
      </trkpt>
      <trkpt lat="43.12708" lon="5.76291">
        <ele>-0.82</ele>
        <time>2016-05-26T13:14:58Z</time>
      </trkpt>
      <trkpt lat="43.12652" lon="5.7629">
        <ele>-1.3</ele>
        <time>2016-05-26T13:15:15Z</time>
      </trkpt>
      <trkpt lat="43.12611" lon="5.7629">
        <ele>-1.79</ele>
        <time>2016-05-26T13:15:28Z</time>
      </trkpt>
      <trkpt lat="43.12562" lon="5.76288">
        <ele>-0.82</ele>
        <time>2016-05-26T13:15:43Z</time>
      </trkpt>
      <trkpt lat="43.12508" lon="5.76279">
        <ele>0.14</ele>
        <time>2016-05-26T13:16:00Z</time>
      </trkpt>
      <trkpt lat="43.12456" lon="5.76271">
        <ele>-1.79</ele>
        <time>2016-05-26T13:16:16Z</time>
      </trkpt>
      <trkpt lat="43.12402" lon="5.76268">
        <ele>-2.75</ele>
        <time>2016-05-26T13:16:33Z</time>
      </trkpt>
      <trkpt lat="43.12352" lon="5.76264">
        <ele>-1.79</ele>
        <time>2016-05-26T13:16:49Z</time>
      </trkpt>
      <trkpt lat="43.12298" lon="5.7626">
        <ele>-0.82</ele>
        <time>2016-05-26T13:17:06Z</time>
      </trkpt>
      <trkpt lat="43.12238" lon="5.76253">
        <ele>1.1</ele>
        <time>2016-05-26T13:17:25Z</time>
      </trkpt>
      <trkpt lat="43.12188" lon="5.76252">
        <ele>0.62</ele>
        <time>2016-05-26T13:17:40Z</time>
      </trkpt>
      <trkpt lat="43.12145" lon="5.76251">
        <ele>0.14</ele>
        <time>2016-05-26T13:17:53Z</time>
      </trkpt>
      <trkpt lat="43.12096" lon="5.76257">
        <ele>2.06</ele>
        <time>2016-05-26T13:18:08Z</time>
      </trkpt>
      <trkpt lat="43.12051" lon="5.76259">
        <ele>0.62</ele>
        <time>2016-05-26T13:18:22Z</time>
      </trkpt>
      <trkpt lat="43.12002" lon="5.76264">
        <ele>-1.3</ele>
        <time>2016-05-26T13:18:38Z</time>
      </trkpt>
      <trkpt lat="43.11959" lon="5.76266">
        <ele>-1.3</ele>
        <time>2016-05-26T13:18:52Z</time>
      </trkpt>
      <trkpt lat="43.11896" lon="5.76272">
        <ele>-1.3</ele>
        <time>2016-05-26T13:19:11Z</time>
      </trkpt>
      <trkpt lat="43.11827" lon="5.76277">
        <ele>0.14</ele>
        <time>2016-05-26T13:19:31Z</time>
      </trkpt>
      <trkpt lat="43.11779" lon="5.76281">
        <ele>-1.3</ele>
        <time>2016-05-26T13:19:45Z</time>
      </trkpt>
      <trkpt lat="43.1172" lon="5.76288">
        <ele>-0.34</ele>
        <time>2016-05-26T13:20:02Z</time>
      </trkpt>
      <trkpt lat="43.11669" lon="5.76289">
        <ele>-1.79</ele>
        <time>2016-05-26T13:20:17Z</time>
      </trkpt>
      <trkpt lat="43.11653" lon="5.76307">
        <ele>-1.3</ele>
        <time>2016-05-26T13:20:25Z</time>
      </trkpt>
      <trkpt lat="43.11672" lon="5.76328">
        <ele>-1.79</ele>
        <time>2016-05-26T13:20:37Z</time>
      </trkpt>
      <trkpt lat="43.11706" lon="5.76355">
        <ele>-1.3</ele>
        <time>2016-05-26T13:20:55Z</time>
      </trkpt>
      <trkpt lat="43.11751" lon="5.76392">
        <ele>-2.27</ele>
        <time>2016-05-26T13:21:14Z</time>
      </trkpt>
      <trkpt lat="43.11797" lon="5.76437">
        <ele>-3.23</ele>
        <time>2016-05-26T13:21:32Z</time>
      </trkpt>
      <trkpt lat="43.11843" lon="5.7648">
        <ele>-4.19</ele>
        <time>2016-05-26T13:21:48Z</time>
      </trkpt>
      <trkpt lat="43.11891" lon="5.76518">
        <ele>-3.23</ele>
        <time>2016-05-26T13:22:05Z</time>
      </trkpt>
      <trkpt lat="43.11913" lon="5.76548">
        <ele>-2.75</ele>
        <time>2016-05-26T13:22:17Z</time>
      </trkpt>
      <trkpt lat="43.11959" lon="5.76577">
        <ele>-2.75</ele>
        <time>2016-05-26T13:22:31Z</time>
      </trkpt>
      <trkpt lat="43.12014" lon="5.76603">
        <ele>-2.27</ele>
        <time>2016-05-26T13:22:47Z</time>
      </trkpt>
      <trkpt lat="43.12033" lon="5.76602">
        <ele>-2.75</ele>
        <time>2016-05-26T13:22:52Z</time>
      </trkpt>
      <trkpt lat="43.12073" lon="5.766">
        <ele>-2.75</ele>
        <time>2016-05-26T13:23:04Z</time>
      </trkpt>
      <trkpt lat="43.12118" lon="5.76589">
        <ele>-2.75</ele>
        <time>2016-05-26T13:23:18Z</time>
      </trkpt>
      <trkpt lat="43.12163" lon="5.76567">
        <ele>-3.23</ele>
        <time>2016-05-26T13:23:34Z</time>
      </trkpt>
      <trkpt lat="43.12221" lon="5.7655">
        <ele>-3.23</ele>
        <time>2016-05-26T13:23:54Z</time>
      </trkpt>
      <trkpt lat="43.12277" lon="5.76541">
        <ele>-2.75</ele>
        <time>2016-05-26T13:24:11Z</time>
      </trkpt>
      <trkpt lat="43.12337" lon="5.76537">
        <ele>-2.27</ele>
        <time>2016-05-26T13:24:29Z</time>
      </trkpt>
      <trkpt lat="43.12405" lon="5.76531">
        <ele>-2.75</ele>
        <time>2016-05-26T13:24:50Z</time>
      </trkpt>
      <trkpt lat="43.12472" lon="5.7652">
        <ele>-2.75</ele>
        <time>2016-05-26T13:25:11Z</time>
      </trkpt>
      <trkpt lat="43.1253" lon="5.76513">
        <ele>-2.75</ele>
        <time>2016-05-26T13:25:30Z</time>
      </trkpt>
      <trkpt lat="43.12586" lon="5.7651">
        <ele>-3.71</ele>
        <time>2016-05-26T13:25:49Z</time>
      </trkpt>
      <trkpt lat="43.12639" lon="5.76503">
        <ele>-2.75</ele>
        <time>2016-05-26T13:26:07Z</time>
      </trkpt>
      <trkpt lat="43.12697" lon="5.76491">
        <ele>-2.27</ele>
        <time>2016-05-26T13:26:27Z</time>
      </trkpt>
      <trkpt lat="43.12736" lon="5.76485">
        <ele>-2.75</ele>
        <time>2016-05-26T13:26:41Z</time>
      </trkpt>
      <trkpt lat="43.12783" lon="5.76476">
        <ele>-2.27</ele>
        <time>2016-05-26T13:26:58Z</time>
      </trkpt>
      <trkpt lat="43.12828" lon="5.76467">
        <ele>-2.27</ele>
        <time>2016-05-26T13:27:15Z</time>
      </trkpt>
      <trkpt lat="43.12872" lon="5.76465">
        <ele>-1.79</ele>
        <time>2016-05-26T13:27:30Z</time>
      </trkpt>
      <trkpt lat="43.1293" lon="5.76468">
        <ele>-2.75</ele>
        <time>2016-05-26T13:27:48Z</time>
      </trkpt>
      <trkpt lat="43.12997" lon="5.7647">
        <ele>-2.75</ele>
        <time>2016-05-26T13:28:07Z</time>
      </trkpt>
      <trkpt lat="43.13057" lon="5.76468">
        <ele>-2.27</ele>
        <time>2016-05-26T13:28:25Z</time>
      </trkpt>
      <trkpt lat="43.13116" lon="5.7646">
        <ele>-2.75</ele>
        <time>2016-05-26T13:28:45Z</time>
      </trkpt>
      <trkpt lat="43.1316" lon="5.76449">
        <ele>-2.27</ele>
        <time>2016-05-26T13:29:01Z</time>
      </trkpt>
      <trkpt lat="43.13208" lon="5.76432">
        <ele>-1.79</ele>
        <time>2016-05-26T13:29:20Z</time>
      </trkpt>
      <trkpt lat="43.13235" lon="5.76405">
        <ele>-1.79</ele>
        <time>2016-05-26T13:29:35Z</time>
      </trkpt>
      <trkpt lat="43.13235" lon="5.76403">
        <ele>-1.79</ele>
        <time>2016-05-26T13:29:36Z</time>
      </trkpt>
      <trkpt lat="43.13231" lon="5.76396">
        <ele>-1.79</ele>
        <time>2016-05-26T13:29:40Z</time>
      </trkpt>
      <trkpt lat="43.13208" lon="5.76373">
        <ele>-1.79</ele>
        <time>2016-05-26T13:30:01Z</time>
      </trkpt>
      <trkpt lat="43.13171" lon="5.76348">
        <ele>-1.79</ele>
        <time>2016-05-26T13:30:21Z</time>
      </trkpt>
      <trkpt lat="43.1313" lon="5.76322">
        <ele>-2.27</ele>
        <time>2016-05-26T13:30:39Z</time>
      </trkpt>
      <trkpt lat="43.13082" lon="5.76293">
        <ele>-3.23</ele>
        <time>2016-05-26T13:30:57Z</time>
      </trkpt>
      <trkpt lat="43.13042" lon="5.76276">
        <ele>-3.71</ele>
        <time>2016-05-26T13:31:11Z</time>
      </trkpt>
      <trkpt lat="43.12991" lon="5.76255">
        <ele>-3.71</ele>
        <time>2016-05-26T13:31:28Z</time>
      </trkpt>
      <trkpt lat="43.12939" lon="5.76236">
        <ele>-2.75</ele>
        <time>2016-05-26T13:31:47Z</time>
      </trkpt>
      <trkpt lat="43.12897" lon="5.76224">
        <ele>-2.75</ele>
        <time>2016-05-26T13:32:02Z</time>
      </trkpt>
      <trkpt lat="43.12842" lon="5.7621">
        <ele>-2.27</ele>
        <time>2016-05-26T13:32:21Z</time>
      </trkpt>
      <trkpt lat="43.12801" lon="5.76201">
        <ele>-1.79</ele>
        <time>2016-05-26T13:32:36Z</time>
      </trkpt>
      <trkpt lat="43.12749" lon="5.76191">
        <ele>-1.79</ele>
        <time>2016-05-26T13:32:55Z</time>
      </trkpt>
      <trkpt lat="43.12703" lon="5.76183">
        <ele>-1.3</ele>
        <time>2016-05-26T13:33:11Z</time>
      </trkpt>
      <trkpt lat="43.12655" lon="5.76177">
        <ele>-0.82</ele>
        <time>2016-05-26T13:33:27Z</time>
      </trkpt>
      <trkpt lat="43.12601" lon="5.76171">
        <ele>-1.3</ele>
        <time>2016-05-26T13:33:45Z</time>
      </trkpt>
      <trkpt lat="43.12549" lon="5.76169">
        <ele>-0.34</ele>
        <time>2016-05-26T13:34:02Z</time>
      </trkpt>
      <trkpt lat="43.12499" lon="5.76169">
        <ele>0.62</ele>
        <time>2016-05-26T13:34:19Z</time>
      </trkpt>
      <trkpt lat="43.1246" lon="5.7617">
        <ele>-0.82</ele>
        <time>2016-05-26T13:34:33Z</time>
      </trkpt>
      <trkpt lat="43.12414" lon="5.7617">
        <ele>-0.82</ele>
        <time>2016-05-26T13:34:49Z</time>
      </trkpt>
      <trkpt lat="43.12361" lon="5.76168">
        <ele>-1.3</ele>
        <time>2016-05-26T13:35:07Z</time>
      </trkpt>
      <trkpt lat="43.12309" lon="5.7617">
        <ele>0.14</ele>
        <time>2016-05-26T13:35:24Z</time>
      </trkpt>
      <trkpt lat="43.12253" lon="5.76171">
        <ele>-0.34</ele>
        <time>2016-05-26T13:35:42Z</time>
      </trkpt>
      <trkpt lat="43.12196" lon="5.76173">
        <ele>-0.82</ele>
        <time>2016-05-26T13:36:00Z</time>
      </trkpt>
      <trkpt lat="43.12151" lon="5.76178">
        <ele>-0.34</ele>
        <time>2016-05-26T13:36:14Z</time>
      </trkpt>
      <trkpt lat="43.12103" lon="5.76181">
        <ele>-0.82</ele>
        <time>2016-05-26T13:36:30Z</time>
      </trkpt>
      <trkpt lat="43.12059" lon="5.76186">
        <ele>-1.3</ele>
        <time>2016-05-26T13:36:45Z</time>
      </trkpt>
      <trkpt lat="43.12015" lon="5.76192">
        <ele>-0.82</ele>
        <time>2016-05-26T13:37:00Z</time>
      </trkpt>
      <trkpt lat="43.11964" lon="5.76197">
        <ele>-1.79</ele>
        <time>2016-05-26T13:37:16Z</time>
      </trkpt>
      <trkpt lat="43.11919" lon="5.76203">
        <ele>-1.3</ele>
        <time>2016-05-26T13:37:30Z</time>
      </trkpt>
      <trkpt lat="43.11867" lon="5.76207">
        <ele>-2.27</ele>
        <time>2016-05-26T13:37:46Z</time>
      </trkpt>
      <trkpt lat="43.11814" lon="5.76209">
        <ele>-1.79</ele>
        <time>2016-05-26T13:38:03Z</time>
      </trkpt>
      <trkpt lat="43.11767" lon="5.76215">
        <ele>-0.82</ele>
        <time>2016-05-26T13:38:19Z</time>
      </trkpt>
      <trkpt lat="43.11719" lon="5.76224">
        <ele>-1.3</ele>
        <time>2016-05-26T13:38:35Z</time>
      </trkpt>
      <trkpt lat="43.11679" lon="5.76235">
        <ele>-0.82</ele>
        <time>2016-05-26T13:38:49Z</time>
      </trkpt>
      <trkpt lat="43.11635" lon="5.76245">
        <ele>-1.3</ele>
        <time>2016-05-26T13:39:04Z</time>
      </trkpt>
      <trkpt lat="43.11604" lon="5.76255">
        <ele>-1.3</ele>
        <time>2016-05-26T13:39:15Z</time>
      </trkpt>
      <trkpt lat="43.11605" lon="5.76266">
        <ele>-1.79</ele>
        <time>2016-05-26T13:39:19Z</time>
      </trkpt>
      <trkpt lat="43.11639" lon="5.76311">
        <ele>-2.27</ele>
        <time>2016-05-26T13:39:38Z</time>
      </trkpt>
      <trkpt lat="43.11697" lon="5.76359">
        <ele>-2.27</ele>
        <time>2016-05-26T13:39:59Z</time>
      </trkpt>
      <trkpt lat="43.11763" lon="5.76416">
        <ele>-1.79</ele>
        <time>2016-05-26T13:40:22Z</time>
      </trkpt>
      <trkpt lat="43.11826" lon="5.76467">
        <ele>-3.23</ele>
        <time>2016-05-26T13:40:43Z</time>
      </trkpt>
      <trkpt lat="43.11888" lon="5.76522">
        <ele>-1.3</ele>
        <time>2016-05-26T13:41:04Z</time>
      </trkpt>
      <trkpt lat="43.11945" lon="5.76551">
        <ele>-0.82</ele>
        <time>2016-05-26T13:41:22Z</time>
      </trkpt>
      <trkpt lat="43.11994" lon="5.76546">
        <ele>-0.34</ele>
        <time>2016-05-26T13:41:40Z</time>
      </trkpt>
      <trkpt lat="43.12042" lon="5.76535">
        <ele>-0.34</ele>
        <time>2016-05-26T13:41:58Z</time>
      </trkpt>
      <trkpt lat="43.1209" lon="5.76525">
        <ele>0.14</ele>
        <time>2016-05-26T13:42:15Z</time>
      </trkpt>
      <trkpt lat="43.12146" lon="5.76517">
        <ele>-0.82</ele>
        <time>2016-05-26T13:42:34Z</time>
      </trkpt>
      <trkpt lat="43.12198" lon="5.76509">
        <ele>-1.79</ele>
        <time>2016-05-26T13:42:51Z</time>
      </trkpt>
      <trkpt lat="43.12244" lon="5.76503">
        <ele>-1.79</ele>
        <time>2016-05-26T13:43:07Z</time>
      </trkpt>
      <trkpt lat="43.12308" lon="5.76497">
        <ele>-1.3</ele>
        <time>2016-05-26T13:43:29Z</time>
      </trkpt>
      <trkpt lat="43.1237" lon="5.76491">
        <ele>-2.27</ele>
        <time>2016-05-26T13:43:49Z</time>
      </trkpt>
      <trkpt lat="43.12423" lon="5.76488">
        <ele>-1.3</ele>
        <time>2016-05-26T13:44:06Z</time>
      </trkpt>
      <trkpt lat="43.12492" lon="5.76484">
        <ele>-2.27</ele>
        <time>2016-05-26T13:44:27Z</time>
      </trkpt>
      <trkpt lat="43.12541" lon="5.76481">
        <ele>-1.79</ele>
        <time>2016-05-26T13:44:43Z</time>
      </trkpt>
      <trkpt lat="43.12596" lon="5.7648">
        <ele>-0.82</ele>
        <time>2016-05-26T13:45:01Z</time>
      </trkpt>
      <trkpt lat="43.12648" lon="5.76478">
        <ele>-0.82</ele>
        <time>2016-05-26T13:45:19Z</time>
      </trkpt>
      <trkpt lat="43.12697" lon="5.76476">
        <ele>-1.3</ele>
        <time>2016-05-26T13:45:36Z</time>
      </trkpt>
      <trkpt lat="43.12752" lon="5.76473">
        <ele>-0.82</ele>
        <time>2016-05-26T13:45:55Z</time>
      </trkpt>
      <trkpt lat="43.12799" lon="5.7647">
        <ele>-0.82</ele>
        <time>2016-05-26T13:46:12Z</time>
      </trkpt>
      <trkpt lat="43.12843" lon="5.76464">
        <ele>-1.3</ele>
        <time>2016-05-26T13:46:28Z</time>
      </trkpt>
      <trkpt lat="43.12879" lon="5.7646">
        <ele>-0.82</ele>
        <time>2016-05-26T13:46:43Z</time>
      </trkpt>
      <trkpt lat="43.12919" lon="5.76454">
        <ele>-1.3</ele>
        <time>2016-05-26T13:47:00Z</time>
      </trkpt>
      <trkpt lat="43.12958" lon="5.7645">
        <ele>-1.3</ele>
        <time>2016-05-26T13:47:17Z</time>
      </trkpt>
      <trkpt lat="43.12994" lon="5.76447">
        <ele>-1.3</ele>
        <time>2016-05-26T13:47:32Z</time>
      </trkpt>
      <trkpt lat="43.1303" lon="5.76444">
        <ele>-0.82</ele>
        <time>2016-05-26T13:47:47Z</time>
      </trkpt>
      <trkpt lat="43.13064" lon="5.76441">
        <ele>-0.34</ele>
        <time>2016-05-26T13:48:03Z</time>
      </trkpt>
      <trkpt lat="43.13097" lon="5.76436">
        <ele>-0.34</ele>
        <time>2016-05-26T13:48:18Z</time>
      </trkpt>
      <trkpt lat="43.13148" lon="5.76432">
        <ele>-0.34</ele>
        <time>2016-05-26T13:48:40Z</time>
      </trkpt>
      <trkpt lat="43.13194" lon="5.76425">
        <ele>-0.34</ele>
        <time>2016-05-26T13:48:59Z</time>
      </trkpt>
      <trkpt lat="43.13234" lon="5.76414">
        <ele>-0.82</ele>
        <time>2016-05-26T13:49:14Z</time>
      </trkpt>
      <trkpt lat="43.13235" lon="5.76391">
        <ele>-0.82</ele>
        <time>2016-05-26T13:49:22Z</time>
      </trkpt>
      <trkpt lat="43.13209" lon="5.76367">
        <ele>-1.79</ele>
        <time>2016-05-26T13:49:38Z</time>
      </trkpt>
      <trkpt lat="43.13175" lon="5.7634">
        <ele>-1.3</ele>
        <time>2016-05-26T13:49:56Z</time>
      </trkpt>
      <trkpt lat="43.13142" lon="5.7632">
        <ele>-1.3</ele>
        <time>2016-05-26T13:50:13Z</time>
      </trkpt>
      <trkpt lat="43.13105" lon="5.76304">
        <ele>-1.79</ele>
        <time>2016-05-26T13:50:28Z</time>
      </trkpt>
      <trkpt lat="43.13072" lon="5.76286">
        <ele>-1.3</ele>
        <time>2016-05-26T13:50:44Z</time>
      </trkpt>
      <trkpt lat="43.13027" lon="5.76268">
        <ele>-2.27</ele>
        <time>2016-05-26T13:51:02Z</time>
      </trkpt>
      <trkpt lat="43.12975" lon="5.76247">
        <ele>-2.27</ele>
        <time>2016-05-26T13:51:22Z</time>
      </trkpt>
      <trkpt lat="43.1293" lon="5.76229">
        <ele>-1.79</ele>
        <time>2016-05-26T13:51:41Z</time>
      </trkpt>
      <trkpt lat="43.1289" lon="5.76214">
        <ele>-2.27</ele>
        <time>2016-05-26T13:51:58Z</time>
      </trkpt>
      <trkpt lat="43.12847" lon="5.76198">
        <ele>-2.27</ele>
        <time>2016-05-26T13:52:14Z</time>
      </trkpt>
      <trkpt lat="43.12803" lon="5.76188">
        <ele>-1.79</ele>
        <time>2016-05-26T13:52:31Z</time>
      </trkpt>
      <trkpt lat="43.12761" lon="5.76179">
        <ele>-1.3</ele>
        <time>2016-05-26T13:52:48Z</time>
      </trkpt>
      <trkpt lat="43.12716" lon="5.76171">
        <ele>-1.3</ele>
        <time>2016-05-26T13:53:06Z</time>
      </trkpt>
      <trkpt lat="43.12668" lon="5.76164">
        <ele>-1.79</ele>
        <time>2016-05-26T13:53:24Z</time>
      </trkpt>
      <trkpt lat="43.12625" lon="5.76154">
        <ele>-2.75</ele>
        <time>2016-05-26T13:53:39Z</time>
      </trkpt>
      <trkpt lat="43.12572" lon="5.76146">
        <ele>-2.27</ele>
        <time>2016-05-26T13:53:56Z</time>
      </trkpt>
      <trkpt lat="43.12526" lon="5.76139">
        <ele>-1.79</ele>
        <time>2016-05-26T13:54:11Z</time>
      </trkpt>
      <trkpt lat="43.12476" lon="5.76134">
        <ele>-2.27</ele>
        <time>2016-05-26T13:54:28Z</time>
      </trkpt>
      <trkpt lat="43.12423" lon="5.76125">
        <ele>-1.79</ele>
        <time>2016-05-26T13:54:46Z</time>
      </trkpt>
      <trkpt lat="43.12375" lon="5.76117">
        <ele>-1.79</ele>
        <time>2016-05-26T13:55:02Z</time>
      </trkpt>
      <trkpt lat="43.12322" lon="5.76113">
        <ele>-1.3</ele>
        <time>2016-05-26T13:55:19Z</time>
      </trkpt>
      <trkpt lat="43.12269" lon="5.76113">
        <ele>-1.3</ele>
        <time>2016-05-26T13:55:36Z</time>
      </trkpt>
      <trkpt lat="43.12202" lon="5.76103">
        <ele>-1.3</ele>
        <time>2016-05-26T13:55:56Z</time>
      </trkpt>
      <trkpt lat="43.12162" lon="5.76103">
        <ele>-0.82</ele>
        <time>2016-05-26T13:56:09Z</time>
      </trkpt>
      <trkpt lat="43.12117" lon="5.76111">
        <ele>-1.79</ele>
        <time>2016-05-26T13:56:24Z</time>
      </trkpt>
      <trkpt lat="43.12073" lon="5.76121">
        <ele>-1.79</ele>
        <time>2016-05-26T13:56:39Z</time>
      </trkpt>
      <trkpt lat="43.12027" lon="5.76129">
        <ele>-1.3</ele>
        <time>2016-05-26T13:56:55Z</time>
      </trkpt>
      <trkpt lat="43.11983" lon="5.76134">
        <ele>-1.3</ele>
        <time>2016-05-26T13:57:10Z</time>
      </trkpt>
      <trkpt lat="43.11935" lon="5.76146">
        <ele>-0.34</ele>
        <time>2016-05-26T13:57:27Z</time>
      </trkpt>
      <trkpt lat="43.11893" lon="5.76158">
        <ele>-0.82</ele>
        <time>2016-05-26T13:57:42Z</time>
      </trkpt>
      <trkpt lat="43.11852" lon="5.7617">
        <ele>-0.82</ele>
        <time>2016-05-26T13:57:58Z</time>
      </trkpt>
      <trkpt lat="43.11805" lon="5.7618">
        <ele>-1.79</ele>
        <time>2016-05-26T13:58:15Z</time>
      </trkpt>
      <trkpt lat="43.11767" lon="5.76189">
        <ele>-1.79</ele>
        <time>2016-05-26T13:58:29Z</time>
      </trkpt>
      <trkpt lat="43.11727" lon="5.76197">
        <ele>-1.79</ele>
        <time>2016-05-26T13:58:43Z</time>
      </trkpt>
      <trkpt lat="43.11688" lon="5.76207">
        <ele>-1.3</ele>
        <time>2016-05-26T13:58:57Z</time>
      </trkpt>
      <trkpt lat="43.11645" lon="5.76212">
        <ele>-1.3</ele>
        <time>2016-05-26T13:59:12Z</time>
      </trkpt>
      <trkpt lat="43.11589" lon="5.76216">
        <ele>-0.82</ele>
        <time>2016-05-26T13:59:30Z</time>
      </trkpt>
      <trkpt lat="43.11557" lon="5.76219">
        <ele>-0.82</ele>
        <time>2016-05-26T13:59:40Z</time>
      </trkpt>
      <trkpt lat="43.11557" lon="5.7624">
        <ele>0.14</ele>
        <time>2016-05-26T13:59:47Z</time>
      </trkpt>
      <trkpt lat="43.11592" lon="5.76284">
        <ele>-0.82</ele>
        <time>2016-05-26T14:00:04Z</time>
      </trkpt>
      <trkpt lat="43.11649" lon="5.76334">
        <ele>0.14</ele>
        <time>2016-05-26T14:00:23Z</time>
      </trkpt>
      <trkpt lat="43.11708" lon="5.76384">
        <ele>0.62</ele>
        <time>2016-05-26T14:00:42Z</time>
      </trkpt>
      <trkpt lat="43.11761" lon="5.76426">
        <ele>0.14</ele>
        <time>2016-05-26T14:00:59Z</time>
      </trkpt>
      <trkpt lat="43.1182" lon="5.76472">
        <ele>0.62</ele>
        <time>2016-05-26T14:01:18Z</time>
      </trkpt>
      <trkpt lat="43.11875" lon="5.76515">
        <ele>0.62</ele>
        <time>2016-05-26T14:01:36Z</time>
      </trkpt>
      <trkpt lat="43.11926" lon="5.76543">
        <ele>0.62</ele>
        <time>2016-05-26T14:01:53Z</time>
      </trkpt>
      <trkpt lat="43.11975" lon="5.76531">
        <ele>-0.34</ele>
        <time>2016-05-26T14:02:11Z</time>
      </trkpt>
      <trkpt lat="43.12025" lon="5.7651">
        <ele>0.14</ele>
        <time>2016-05-26T14:02:29Z</time>
      </trkpt>
      <trkpt lat="43.12072" lon="5.76499">
        <ele>-0.82</ele>
        <time>2016-05-26T14:02:46Z</time>
      </trkpt>
      <trkpt lat="43.12112" lon="5.76489">
        <ele>-0.82</ele>
        <time>2016-05-26T14:03:02Z</time>
      </trkpt>
      <trkpt lat="43.12149" lon="5.76482">
        <ele>-1.79</ele>
        <time>2016-05-26T14:03:16Z</time>
      </trkpt>
      <trkpt lat="43.12197" lon="5.76472">
        <ele>-0.82</ele>
        <time>2016-05-26T14:03:33Z</time>
      </trkpt>
      <trkpt lat="43.12242" lon="5.7646">
        <ele>-0.82</ele>
        <time>2016-05-26T14:03:49Z</time>
      </trkpt>
      <trkpt lat="43.12287" lon="5.76444">
        <ele>-0.82</ele>
        <time>2016-05-26T14:04:06Z</time>
      </trkpt>
      <trkpt lat="43.12324" lon="5.76431">
        <ele>-0.82</ele>
        <time>2016-05-26T14:04:20Z</time>
      </trkpt>
      <trkpt lat="43.12361" lon="5.76419">
        <ele>-0.82</ele>
        <time>2016-05-26T14:04:35Z</time>
      </trkpt>
      <trkpt lat="43.12406" lon="5.76411">
        <ele>-0.82</ele>
        <time>2016-05-26T14:04:53Z</time>
      </trkpt>
      <trkpt lat="43.12457" lon="5.76409">
        <ele>-1.79</ele>
        <time>2016-05-26T14:05:12Z</time>
      </trkpt>
      <trkpt lat="43.12516" lon="5.76416">
        <ele>-0.82</ele>
        <time>2016-05-26T14:05:33Z</time>
      </trkpt>
      <trkpt lat="43.12562" lon="5.76418">
        <ele>-0.82</ele>
        <time>2016-05-26T14:05:50Z</time>
      </trkpt>
      <trkpt lat="43.12604" lon="5.76419">
        <ele>-0.34</ele>
        <time>2016-05-26T14:06:05Z</time>
      </trkpt>
      <trkpt lat="43.12652" lon="5.7642">
        <ele>-1.3</ele>
        <time>2016-05-26T14:06:22Z</time>
      </trkpt>
      <trkpt lat="43.12701" lon="5.76419">
        <ele>-1.3</ele>
        <time>2016-05-26T14:06:40Z</time>
      </trkpt>
      <trkpt lat="43.12743" lon="5.76418">
        <ele>-0.34</ele>
        <time>2016-05-26T14:06:59Z</time>
      </trkpt>
      <trkpt lat="43.12783" lon="5.76417">
        <ele>-2.27</ele>
        <time>2016-05-26T14:07:17Z</time>
      </trkpt>
      <trkpt lat="43.12826" lon="5.76417">
        <ele>-1.79</ele>
        <time>2016-05-26T14:07:33Z</time>
      </trkpt>
      <trkpt lat="43.12873" lon="5.76417">
        <ele>-1.3</ele>
        <time>2016-05-26T14:07:52Z</time>
      </trkpt>
      <trkpt lat="43.1291" lon="5.76415">
        <ele>-1.79</ele>
        <time>2016-05-26T14:08:07Z</time>
      </trkpt>
      <trkpt lat="43.12959" lon="5.76416">
        <ele>-1.79</ele>
        <time>2016-05-26T14:08:26Z</time>
      </trkpt>
      <trkpt lat="43.12995" lon="5.76415">
        <ele>-1.3</ele>
        <time>2016-05-26T14:08:39Z</time>
      </trkpt>
      <trkpt lat="43.13036" lon="5.76415">
        <ele>-1.79</ele>
        <time>2016-05-26T14:08:53Z</time>
      </trkpt>
      <trkpt lat="43.13082" lon="5.76418">
        <ele>-1.3</ele>
        <time>2016-05-26T14:09:08Z</time>
      </trkpt>
      <trkpt lat="43.13128" lon="5.76417">
        <ele>-1.79</ele>
        <time>2016-05-26T14:09:24Z</time>
      </trkpt>
      <trkpt lat="43.13177" lon="5.76415">
        <ele>-1.79</ele>
        <time>2016-05-26T14:09:42Z</time>
      </trkpt>
      <trkpt lat="43.13228" lon="5.76417">
        <ele>-1.3</ele>
        <time>2016-05-26T14:10:02Z</time>
      </trkpt>
      <trkpt lat="43.13234" lon="5.76409">
        <ele>-1.3</ele>
        <time>2016-05-26T14:10:05Z</time>
      </trkpt>
      <trkpt lat="43.13229" lon="5.76367">
        <ele>-0.82</ele>
        <time>2016-05-26T14:10:20Z</time>
      </trkpt>
      <trkpt lat="43.13218" lon="5.76314">
        <ele>-0.34</ele>
        <time>2016-05-26T14:10:36Z</time>
      </trkpt>
      <trkpt lat="43.13205" lon="5.76259">
        <ele>-0.34</ele>
        <time>2016-05-26T14:10:54Z</time>
      </trkpt>
      <trkpt lat="43.13195" lon="5.76213">
        <ele>-0.34</ele>
        <time>2016-05-26T14:11:09Z</time>
      </trkpt>
      <trkpt lat="43.13183" lon="5.76159">
        <ele>-0.34</ele>
        <time>2016-05-26T14:11:26Z</time>
      </trkpt>
      <trkpt lat="43.13176" lon="5.76113">
        <ele>0.14</ele>
        <time>2016-05-26T14:11:40Z</time>
      </trkpt>
      <trkpt lat="43.1317" lon="5.7606">
        <ele>0.14</ele>
        <time>2016-05-26T14:11:56Z</time>
      </trkpt>
      <trkpt lat="43.13163" lon="5.76001">
        <ele>-0.34</ele>
        <time>2016-05-26T14:12:14Z</time>
      </trkpt>
      <trkpt lat="43.1316" lon="5.75951">
        <ele>0.14</ele>
        <time>2016-05-26T14:12:30Z</time>
      </trkpt>
      <trkpt lat="43.13165" lon="5.75902">
        <ele>0.62</ele>
        <time>2016-05-26T14:12:47Z</time>
      </trkpt>
      <trkpt lat="43.13177" lon="5.75858">
        <ele>0.14</ele>
        <time>2016-05-26T14:13:06Z</time>
      </trkpt>
      <trkpt lat="43.13185" lon="5.75818">
        <ele>0.14</ele>
        <time>2016-05-26T14:13:25Z</time>
      </trkpt>
      <trkpt lat="43.13174" lon="5.75778">
        <ele>-0.82</ele>
        <time>2016-05-26T14:13:43Z</time>
      </trkpt>
      <trkpt lat="43.13156" lon="5.75743">
        <ele>-1.3</ele>
        <time>2016-05-26T14:14:02Z</time>
      </trkpt>
      <trkpt lat="43.13144" lon="5.75704">
        <ele>-0.82</ele>
        <time>2016-05-26T14:14:20Z</time>
      </trkpt>
      <trkpt lat="43.13126" lon="5.75677">
        <ele>-1.3</ele>
        <time>2016-05-26T14:14:37Z</time>
      </trkpt>
      <trkpt lat="43.13114" lon="5.75697">
        <ele>-0.34</ele>
        <time>2016-05-26T14:14:53Z</time>
      </trkpt>
      <trkpt lat="43.13132" lon="5.75723">
        <ele>-0.82</ele>
        <time>2016-05-26T14:15:11Z</time>
      </trkpt>
      <trkpt lat="43.13155" lon="5.75748">
        <ele>-0.82</ele>
        <time>2016-05-26T14:15:29Z</time>
      </trkpt>
      <trkpt lat="43.13176" lon="5.75781">
        <ele>-1.3</ele>
        <time>2016-05-26T14:15:49Z</time>
      </trkpt>
      <trkpt lat="43.13193" lon="5.75817">
        <ele>-0.82</ele>
        <time>2016-05-26T14:16:08Z</time>
      </trkpt>
      <trkpt lat="43.13211" lon="5.75853">
        <ele>-0.82</ele>
        <time>2016-05-26T14:16:27Z</time>
      </trkpt>
      <trkpt lat="43.13233" lon="5.75879">
        <ele>-1.79</ele>
        <time>2016-05-26T14:16:45Z</time>
      </trkpt>
      <trkpt lat="43.13253" lon="5.75907">
        <ele>-1.79</ele>
        <time>2016-05-26T14:17:03Z</time>
      </trkpt>
      <trkpt lat="43.13269" lon="5.75937">
        <ele>-1.79</ele>
        <time>2016-05-26T14:17:20Z</time>
      </trkpt>
      <trkpt lat="43.13279" lon="5.75973">
        <ele>-1.79</ele>
        <time>2016-05-26T14:17:38Z</time>
      </trkpt>
      <trkpt lat="43.13285" lon="5.76015">
        <ele>-1.3</ele>
        <time>2016-05-26T14:17:57Z</time>
      </trkpt>
      <trkpt lat="43.13286" lon="5.7605">
        <ele>-0.82</ele>
        <time>2016-05-26T14:18:12Z</time>
      </trkpt>
      <trkpt lat="43.13284" lon="5.76093">
        <ele>-0.34</ele>
        <time>2016-05-26T14:18:30Z</time>
      </trkpt>
      <trkpt lat="43.13285" lon="5.76141">
        <ele>0.14</ele>
        <time>2016-05-26T14:18:50Z</time>
      </trkpt>
      <trkpt lat="43.13286" lon="5.76183">
        <ele>0.62</ele>
        <time>2016-05-26T14:19:08Z</time>
      </trkpt>
      <trkpt lat="43.13287" lon="5.76222">
        <ele>0.14</ele>
        <time>2016-05-26T14:19:26Z</time>
      </trkpt>
      <trkpt lat="43.13283" lon="5.76264">
        <ele>0.14</ele>
        <time>2016-05-26T14:19:47Z</time>
      </trkpt>
      <trkpt lat="43.13275" lon="5.76292">
        <ele>-0.34</ele>
        <time>2016-05-26T14:20:03Z</time>
      </trkpt>
      <trkpt lat="43.13267" lon="5.76326">
        <ele>0.14</ele>
        <time>2016-05-26T14:20:21Z</time>
      </trkpt>
      <trkpt lat="43.13282" lon="5.76344">
        <ele>-0.34</ele>
        <time>2016-05-26T14:20:34Z</time>
      </trkpt>
      <trkpt lat="43.13316" lon="5.76338">
        <ele>-0.82</ele>
        <time>2016-05-26T14:20:57Z</time>
      </trkpt>
      <trkpt lat="43.13333" lon="5.76311">
        <ele>-0.82</ele>
        <time>2016-05-26T14:21:15Z</time>
      </trkpt>
      <trkpt lat="43.13341" lon="5.76269">
        <ele>0.62</ele>
        <time>2016-05-26T14:21:36Z</time>
      </trkpt>
      <trkpt lat="43.13347" lon="5.76233">
        <ele>-0.34</ele>
        <time>2016-05-26T14:21:54Z</time>
      </trkpt>
      <trkpt lat="43.13343" lon="5.76193">
        <ele>-1.3</ele>
        <time>2016-05-26T14:22:15Z</time>
      </trkpt>
      <trkpt lat="43.13337" lon="5.76153">
        <ele>-0.34</ele>
        <time>2016-05-26T14:22:35Z</time>
      </trkpt>
      <trkpt lat="43.1334" lon="5.76106">
        <ele>-0.82</ele>
        <time>2016-05-26T14:22:57Z</time>
      </trkpt>
      <trkpt lat="43.13348" lon="5.76064">
        <ele>-0.82</ele>
        <time>2016-05-26T14:23:17Z</time>
      </trkpt>
      <trkpt lat="43.13354" lon="5.76023">
        <ele>-1.3</ele>
        <time>2016-05-26T14:23:36Z</time>
      </trkpt>
      <trkpt lat="43.1336" lon="5.75986">
        <ele>-1.79</ele>
        <time>2016-05-26T14:23:53Z</time>
      </trkpt>
      <trkpt lat="43.13366" lon="5.75944">
        <ele>-1.79</ele>
        <time>2016-05-26T14:24:11Z</time>
      </trkpt>
      <trkpt lat="43.13355" lon="5.75924">
        <ele>-1.3</ele>
        <time>2016-05-26T14:24:23Z</time>
      </trkpt>
      <trkpt lat="43.13336" lon="5.75931">
        <ele>-1.79</ele>
        <time>2016-05-26T14:24:41Z</time>
      </trkpt>
      <trkpt lat="43.13318" lon="5.75938">
        <ele>-1.3</ele>
        <time>2016-05-26T14:24:58Z</time>
      </trkpt>
      <trkpt lat="43.13297" lon="5.75946">
        <ele>0.14</ele>
        <time>2016-05-26T14:25:19Z</time>
      </trkpt>
      <trkpt lat="43.13283" lon="5.75952">
        <ele>-0.34</ele>
        <time>2016-05-26T14:25:34Z</time>
      </trkpt>
      <trkpt lat="43.13264" lon="5.75956">
        <ele>-0.34</ele>
        <time>2016-05-26T14:25:56Z</time>
      </trkpt>
      <trkpt lat="43.13246" lon="5.75956">
        <ele>-0.82</ele>
        <time>2016-05-26T14:26:18Z</time>
      </trkpt>
      <trkpt lat="43.13243" lon="5.75953">
        <ele>-0.82</ele>
        <time>2016-05-26T14:26:22Z</time>
      </trkpt>
      <trkpt lat="43.1324" lon="5.75941">
        <ele>-0.34</ele>
        <time>2016-05-26T14:26:33Z</time>
      </trkpt>
      <trkpt lat="43.13242" lon="5.75936">
        <ele>-0.34</ele>
        <time>2016-05-26T14:26:37Z</time>
      </trkpt>
      <trkpt lat="43.13245" lon="5.75932">
        <ele>-0.82</ele>
        <time>2016-05-26T14:26:41Z</time>
      </trkpt>
      <trkpt lat="43.13252" lon="5.75932">
        <ele>-0.82</ele>
        <time>2016-05-26T14:26:48Z</time>
      </trkpt>
      <trkpt lat="43.13256" lon="5.7595">
        <ele>-2.27</ele>
        <time>2016-05-26T14:27:05Z</time>
      </trkpt>
      <trkpt lat="43.13252" lon="5.75954">
        <ele>-1.79</ele>
        <time>2016-05-26T14:27:10Z</time>
      </trkpt>
      <trkpt lat="43.13245" lon="5.75953">
        <ele>-1.3</ele>
        <time>2016-05-26T14:27:15Z</time>
      </trkpt>
      <trkpt lat="43.13213" lon="5.75935">
        <ele>-1.3</ele>
        <time>2016-05-26T14:27:33Z</time>
      </trkpt>
      <trkpt lat="43.13167" lon="5.75928">
        <ele>-1.3</ele>
        <time>2016-05-26T14:27:52Z</time>
      </trkpt>
      <trkpt lat="43.13134" lon="5.75922">
        <ele>-1.79</ele>
        <time>2016-05-26T14:28:09Z</time>
      </trkpt>
      <trkpt lat="43.13134" lon="5.75903">
        <ele>-0.82</ele>
        <time>2016-05-26T14:28:22Z</time>
      </trkpt>
      <trkpt lat="43.13154" lon="5.759">
        <ele>-1.79</ele>
        <time>2016-05-26T14:28:39Z</time>
      </trkpt>
      <trkpt lat="43.13181" lon="5.75907">
        <ele>-3.23</ele>
        <time>2016-05-26T14:28:58Z</time>
      </trkpt>
      <trkpt lat="43.13213" lon="5.75906">
        <ele>-2.75</ele>
        <time>2016-05-26T14:29:19Z</time>
      </trkpt>
      <trkpt lat="43.13245" lon="5.75888">
        <ele>-1.3</ele>
        <time>2016-05-26T14:29:36Z</time>
      </trkpt>
      <trkpt lat="43.13271" lon="5.75858">
        <ele>-0.82</ele>
        <time>2016-05-26T14:29:52Z</time>
      </trkpt>
      <trkpt lat="43.13301" lon="5.75828">
        <ele>-1.3</ele>
        <time>2016-05-26T14:30:09Z</time>
      </trkpt>
      <trkpt lat="43.13335" lon="5.75788">
        <ele>-1.79</ele>
        <time>2016-05-26T14:30:29Z</time>
      </trkpt>
      <trkpt lat="43.13343" lon="5.7575">
        <ele>-1.3</ele>
        <time>2016-05-26T14:30:46Z</time>
      </trkpt>
      <trkpt lat="43.13335" lon="5.75718">
        <ele>-1.79</ele>
        <time>2016-05-26T14:31:04Z</time>
      </trkpt>
      <trkpt lat="43.13327" lon="5.75682">
        <ele>-1.3</ele>
        <time>2016-05-26T14:31:26Z</time>
      </trkpt>
      <trkpt lat="43.13343" lon="5.75648">
        <ele>-0.34</ele>
        <time>2016-05-26T14:31:49Z</time>
      </trkpt>
      <trkpt lat="43.1337" lon="5.75606">
        <ele>0.14</ele>
        <time>2016-05-26T14:32:17Z</time>
      </trkpt>
      <trkpt lat="43.134" lon="5.75553">
        <ele>1.58</ele>
        <time>2016-05-26T14:32:52Z</time>
      </trkpt>
      <trkpt lat="43.13418" lon="5.75514">
        <ele>0.62</ele>
        <time>2016-05-26T14:33:22Z</time>
      </trkpt>
      <trkpt lat="43.13426" lon="5.75496">
        <ele>1.1</ele>
        <time>2016-05-26T14:33:50Z</time>
      </trkpt>
      <trkpt lat="43.13443" lon="5.75487">
        <ele>2.06</ele>
        <time>2016-05-26T14:34:13Z</time>
      </trkpt>
      <trkpt lat="43.13455" lon="5.75469">
        <ele>2.54</ele>
        <time>2016-05-26T14:34:36Z</time>
      </trkpt>
      <trkpt lat="43.13455" lon="5.7546">
        <ele>1.1</ele>
        <time>2016-05-26T14:34:54Z</time>
      </trkpt>
      <trkpt lat="43.13461" lon="5.75468">
        <ele>0.14</ele>
        <time>2016-05-26T14:35:16Z</time>
      </trkpt>
      <trkpt lat="43.13476" lon="5.75477">
        <ele>-0.34</ele>
        <time>2016-05-26T14:35:32Z</time>
      </trkpt>
      <trkpt lat="43.1349" lon="5.75493">
        <ele>0.62</ele>
        <time>2016-05-26T14:35:59Z</time>
      </trkpt>
      <trkpt lat="43.1349" lon="5.75499">
        <ele>1.58</ele>
        <time>2016-05-26T14:36:26Z</time>
      </trkpt>
      <trkpt lat="43.1349" lon="5.75502">
        <ele>0.14</ele>
        <time>2016-05-26T14:36:55Z</time>
      </trkpt>
      <trkpt lat="43.1349" lon="5.75503">
        <ele>0.62</ele>
        <time>2016-05-26T14:37:18Z</time>
      </trkpt>
      <trkpt lat="43.13491" lon="5.75506">
        <ele>1.1</ele>
        <time>2016-05-26T14:37:52Z</time>
      </trkpt>
      <trkpt lat="43.1349" lon="5.75506">
        <ele>0.62</ele>
        <time>2016-05-26T14:38:25Z</time>
      </trkpt>
      <trkpt lat="43.1349" lon="5.75507">
        <ele>1.1</ele>
        <time>2016-05-26T14:38:54Z</time>
      </trkpt>
      <trkpt lat="43.1349" lon="5.75508">
        <ele>1.1</ele>
        <time>2016-05-26T14:39:29Z</time>
      </trkpt>
      <trkpt lat="43.1349" lon="5.75509">
        <ele>0.14</ele>
        <time>2016-05-26T14:40:10Z</time>
      </trkpt>
      <trkpt lat="43.1349" lon="5.75509">
        <ele>0.14</ele>
        <time>2016-05-26T14:40:41Z</time>
      </trkpt>
      <trkpt lat="43.1349" lon="5.75509">
        <ele>0.14</ele>
        <time>2016-05-26T14:41:20Z</time>
      </trkpt>
      <trkpt lat="43.13489" lon="5.7551">
        <ele>0.14</ele>
        <time>2016-05-26T14:41:53Z</time>
      </trkpt>
      <trkpt lat="43.13489" lon="5.7551">
        <ele>-0.34</ele>
        <time>2016-05-26T14:42:29Z</time>
      </trkpt>
      <trkpt lat="43.1349" lon="5.75509">
        <ele>0.14</ele>
        <time>2016-05-26T14:43:03Z</time>
      </trkpt>
      <trkpt lat="43.1349" lon="5.75509">
        <ele>-0.34</ele>
        <time>2016-05-26T14:43:42Z</time>
      </trkpt>
      <trkpt lat="43.13489" lon="5.75509">
        <ele>-0.34</ele>
        <time>2016-05-26T14:44:20Z</time>
      </trkpt>
      <trkpt lat="43.1349" lon="5.75509">
        <ele>-0.34</ele>
        <time>2016-05-26T14:44:46Z</time>
      </trkpt>
      <trkpt lat="43.1349" lon="5.75509">
        <ele>-0.34</ele>
        <time>2016-05-26T14:45:24Z</time>
      </trkpt>
      <trkpt lat="43.1349" lon="5.75508">
        <ele>0.14</ele>
        <time>2016-05-26T14:45:59Z</time>
      </trkpt>
      <trkpt lat="43.13489" lon="5.75508">
        <ele>0.62</ele>
        <time>2016-05-26T14:46:30Z</time>
      </trkpt>
      <trkpt lat="43.13489" lon="5.75508">
        <ele>0.14</ele>
        <time>2016-05-26T14:47:02Z</time>
      </trkpt>
      <trkpt lat="43.13489" lon="5.75507">
        <ele>0.14</ele>
        <time>2016-05-26T14:47:40Z</time>
      </trkpt>
      <trkpt lat="43.13489" lon="5.75508">
        <ele>0.62</ele>
        <time>2016-05-26T14:48:19Z</time>
      </trkpt>
      <trkpt lat="43.1349" lon="5.75509">
        <ele>1.1</ele>
        <time>2016-05-26T14:48:50Z</time>
      </trkpt>
      <trkpt lat="43.1349" lon="5.75508">
        <ele>1.58</ele>
        <time>2016-05-26T14:49:23Z</time>
      </trkpt>
      <trkpt lat="43.1349" lon="5.75509">
        <ele>2.06</ele>
        <time>2016-05-26T14:49:57Z</time>
      </trkpt>
      <trkpt lat="43.1349" lon="5.75508">
        <ele>2.06</ele>
        <time>2016-05-26T14:50:27Z</time>
      </trkpt>
      <trkpt lat="43.1349" lon="5.75508">
        <ele>2.06</ele>
        <time>2016-05-26T14:50:56Z</time>
      </trkpt>
      <trkpt lat="43.1349" lon="5.75508">
        <ele>2.06</ele>
        <time>2016-05-26T14:51:28Z</time>
      </trkpt>
      <trkpt lat="43.13489" lon="5.75508">
        <ele>2.06</ele>
        <time>2016-05-26T14:52:05Z</time>
      </trkpt>
      <trkpt lat="43.1349" lon="5.75509">
        <ele>1.58</ele>
        <time>2016-05-26T14:52:38Z</time>
      </trkpt>
      <trkpt lat="43.1349" lon="5.7551">
        <ele>0.62</ele>
        <time>2016-05-26T14:53:10Z</time>
      </trkpt>
      <trkpt lat="43.13489" lon="5.7551">
        <ele>0.62</ele>
        <time>2016-05-26T14:53:37Z</time>
      </trkpt>
      <trkpt lat="43.1349" lon="5.75509">
        <ele>0.62</ele>
        <time>2016-05-26T14:54:15Z</time>
      </trkpt>
      <trkpt lat="43.13489" lon="5.75508">
        <ele>-0.34</ele>
        <time>2016-05-26T14:54:46Z</time>
      </trkpt>
      <trkpt lat="43.13489" lon="5.75508">
        <ele>-0.34</ele>
        <time>2016-05-26T14:55:19Z</time>
      </trkpt>
      <trkpt lat="43.13489" lon="5.75508">
        <ele>-0.82</ele>
        <time>2016-05-26T14:56:00Z</time>
      </trkpt>
      <trkpt lat="43.13489" lon="5.75507">
        <ele>-1.3</ele>
        <time>2016-05-26T14:56:35Z</time>
      </trkpt>
      <trkpt lat="43.13489" lon="5.75507">
        <ele>-1.3</ele>
        <time>2016-05-26T14:57:08Z</time>
      </trkpt>
      <trkpt lat="43.1349" lon="5.75508">
        <ele>-1.79</ele>
        <time>2016-05-26T14:57:42Z</time>
      </trkpt>
      <trkpt lat="43.13489" lon="5.75508">
        <ele>-0.82</ele>
        <time>2016-05-26T14:58:25Z</time>
      </trkpt>
      <trkpt lat="43.13489" lon="5.75509">
        <ele>-0.34</ele>
        <time>2016-05-26T14:58:55Z</time>
      </trkpt>
      <trkpt lat="43.13489" lon="5.7551">
        <ele>0.14</ele>
        <time>2016-05-26T14:59:28Z</time>
      </trkpt>
      <trkpt lat="43.1349" lon="5.7551">
        <ele>-0.34</ele>
        <time>2016-05-26T15:00:02Z</time>
      </trkpt>
      <trkpt lat="43.1349" lon="5.7551">
        <ele>-0.34</ele>
        <time>2016-05-26T15:00:38Z</time>
      </trkpt>
      <trkpt lat="43.1349" lon="5.7551">
        <ele>-0.34</ele>
        <time>2016-05-26T15:01:09Z</time>
      </trkpt>
      <trkpt lat="43.1349" lon="5.7551">
        <ele>-0.82</ele>
        <time>2016-05-26T15:01:55Z</time>
      </trkpt>
      <trkpt lat="43.1349" lon="5.75509">
        <ele>-0.34</ele>
        <time>2016-05-26T15:02:29Z</time>
      </trkpt>
      <trkpt lat="43.1349" lon="5.75509">
        <ele>-0.82</ele>
        <time>2016-05-26T15:03:01Z</time>
      </trkpt>
      <trkpt lat="43.1349" lon="5.75509">
        <ele>-1.3</ele>
        <time>2016-05-26T15:03:32Z</time>
      </trkpt>
      <trkpt lat="43.1349" lon="5.75508">
        <ele>-0.82</ele>
        <time>2016-05-26T15:04:03Z</time>
      </trkpt>
      <trkpt lat="43.1349" lon="5.75509">
        <ele>-0.82</ele>
        <time>2016-05-26T15:04:33Z</time>
      </trkpt>
      <trkpt lat="43.1349" lon="5.75508">
        <ele>-0.82</ele>
        <time>2016-05-26T15:05:00Z</time>
      </trkpt>
      <trkpt lat="43.13489" lon="5.75508">
        <ele>-0.82</ele>
        <time>2016-05-26T15:05:25Z</time>
      </trkpt>
      <trkpt lat="43.13489" lon="5.75508">
        <ele>-0.82</ele>
        <time>2016-05-26T15:05:53Z</time>
      </trkpt>
      <trkpt lat="43.13489" lon="5.75508">
        <ele>-0.34</ele>
        <time>2016-05-26T15:06:20Z</time>
      </trkpt>
      <trkpt lat="43.13488" lon="5.75509">
        <ele>-0.34</ele>
        <time>2016-05-26T15:06:51Z</time>
      </trkpt>
      <trkpt lat="43.13488" lon="5.75509">
        <ele>1.1</ele>
        <time>2016-05-26T15:07:27Z</time>
      </trkpt>
      <trkpt lat="43.13488" lon="5.75509">
        <ele>1.1</ele>
        <time>2016-05-26T15:08:05Z</time>
      </trkpt>
      <trkpt lat="43.13489" lon="5.75508">
        <ele>1.58</ele>
        <time>2016-05-26T15:08:34Z</time>
      </trkpt>
      <trkpt lat="43.13489" lon="5.75508">
        <ele>1.58</ele>
        <time>2016-05-26T15:09:08Z</time>
      </trkpt>
      <trkpt lat="43.13489" lon="5.75508">
        <ele>1.58</ele>
        <time>2016-05-26T15:09:44Z</time>
      </trkpt>
      <trkpt lat="43.13489" lon="5.75508">
        <ele>1.58</ele>
        <time>2016-05-26T15:10:13Z</time>
      </trkpt>
      <trkpt lat="43.1349" lon="5.75508">
        <ele>1.58</ele>
        <time>2016-05-26T15:10:47Z</time>
      </trkpt>
      <trkpt lat="43.1349" lon="5.75508">
        <ele>1.1</ele>
        <time>2016-05-26T15:11:21Z</time>
      </trkpt>
      <trkpt lat="43.1349" lon="5.75508">
        <ele>1.58</ele>
        <time>2016-05-26T15:11:52Z</time>
      </trkpt>
      <trkpt lat="43.13491" lon="5.75509">
        <ele>2.54</ele>
        <time>2016-05-26T15:12:31Z</time>
      </trkpt>
      <trkpt lat="43.13491" lon="5.75509">
        <ele>3.02</ele>
        <time>2016-05-26T15:13:02Z</time>
      </trkpt>
      <trkpt lat="43.1349" lon="5.75509">
        <ele>3.02</ele>
        <time>2016-05-26T15:13:39Z</time>
      </trkpt>
      <trkpt lat="43.1349" lon="5.75509">
        <ele>3.5</ele>
        <time>2016-05-26T15:14:13Z</time>
      </trkpt>
      <trkpt lat="43.1349" lon="5.75509">
        <ele>3.98</ele>
        <time>2016-05-26T15:14:44Z</time>
      </trkpt>
      <trkpt lat="43.13489" lon="5.75509">
        <ele>3.98</ele>
        <time>2016-05-26T15:15:15Z</time>
      </trkpt>
      <trkpt lat="43.13489" lon="5.7551">
        <ele>3.98</ele>
        <time>2016-05-26T15:15:49Z</time>
      </trkpt>
      <trkpt lat="43.13489" lon="5.7551">
        <ele>4.46</ele>
        <time>2016-05-26T15:16:24Z</time>
      </trkpt>
      <trkpt lat="43.13489" lon="5.7551">
        <ele>4.94</ele>
        <time>2016-05-26T15:16:59Z</time>
      </trkpt>
      <trkpt lat="43.13489" lon="5.75509">
        <ele>4.46</ele>
        <time>2016-05-26T15:17:37Z</time>
      </trkpt>
      <trkpt lat="43.13489" lon="5.7551">
        <ele>3.98</ele>
        <time>2016-05-26T15:18:14Z</time>
      </trkpt>
      <trkpt lat="43.13488" lon="5.75509">
        <ele>3.02</ele>
        <time>2016-05-26T15:18:55Z</time>
      </trkpt>
      <trkpt lat="43.13489" lon="5.7551">
        <ele>3.02</ele>
        <time>2016-05-26T15:19:32Z</time>
      </trkpt>
      <trkpt lat="43.13488" lon="5.75509">
        <ele>3.5</ele>
        <time>2016-05-26T15:20:09Z</time>
      </trkpt>
      <trkpt lat="43.13488" lon="5.75508">
        <ele>3.02</ele>
        <time>2016-05-26T15:20:41Z</time>
      </trkpt>
      <trkpt lat="43.13488" lon="5.75508">
        <ele>2.06</ele>
        <time>2016-05-26T15:21:23Z</time>
      </trkpt>
      <trkpt lat="43.13489" lon="5.75508">
        <ele>1.58</ele>
        <time>2016-05-26T15:22:04Z</time>
      </trkpt>
      <trkpt lat="43.13489" lon="5.75509">
        <ele>1.1</ele>
        <time>2016-05-26T15:22:42Z</time>
      </trkpt>
      <trkpt lat="43.13489" lon="5.75508">
        <ele>0.62</ele>
        <time>2016-05-26T15:23:31Z</time>
      </trkpt>
      <trkpt lat="43.13489" lon="5.75509">
        <ele>2.06</ele>
        <time>2016-05-26T15:24:06Z</time>
      </trkpt>
      <trkpt lat="43.1349" lon="5.75509">
        <ele>2.54</ele>
        <time>2016-05-26T15:24:48Z</time>
      </trkpt>
      <trkpt lat="43.13491" lon="5.7551">
        <ele>3.02</ele>
        <time>2016-05-26T15:25:23Z</time>
      </trkpt>
      <trkpt lat="43.13492" lon="5.7551">
        <ele>2.54</ele>
        <time>2016-05-26T15:25:50Z</time>
      </trkpt>
      <trkpt lat="43.13491" lon="5.7551">
        <ele>2.06</ele>
        <time>2016-05-26T15:26:36Z</time>
      </trkpt>
      <trkpt lat="43.13491" lon="5.7551">
        <ele>1.1</ele>
        <time>2016-05-26T15:27:12Z</time>
      </trkpt>
      <trkpt lat="43.1349" lon="5.75511">
        <ele>1.1</ele>
        <time>2016-05-26T15:27:47Z</time>
      </trkpt>
      <trkpt lat="43.13491" lon="5.75511">
        <ele>1.1</ele>
        <time>2016-05-26T15:28:18Z</time>
      </trkpt>
      <trkpt lat="43.1349" lon="5.7551">
        <ele>1.58</ele>
        <time>2016-05-26T15:28:51Z</time>
      </trkpt>
      <trkpt lat="43.13489" lon="5.75509">
        <ele>2.54</ele>
        <time>2016-05-26T15:29:27Z</time>
      </trkpt>
      <trkpt lat="43.13489" lon="5.75509">
        <ele>3.02</ele>
        <time>2016-05-26T15:30:05Z</time>
      </trkpt>
      <trkpt lat="43.13488" lon="5.75509">
        <ele>3.02</ele>
        <time>2016-05-26T15:30:36Z</time>
      </trkpt>
      <trkpt lat="43.13488" lon="5.75509">
        <ele>3.5</ele>
        <time>2016-05-26T15:31:08Z</time>
      </trkpt>
      <trkpt lat="43.13487" lon="5.75509">
        <ele>3.98</ele>
        <time>2016-05-26T15:31:46Z</time>
      </trkpt>
      <trkpt lat="43.13487" lon="5.75508">
        <ele>3.02</ele>
        <time>2016-05-26T15:32:21Z</time>
      </trkpt>
      <trkpt lat="43.13487" lon="5.75507">
        <ele>2.54</ele>
        <time>2016-05-26T15:32:59Z</time>
      </trkpt>
      <trkpt lat="43.13488" lon="5.75508">
        <ele>1.58</ele>
        <time>2016-05-26T15:33:45Z</time>
      </trkpt>
      <trkpt lat="43.13488" lon="5.75507">
        <ele>0.62</ele>
        <time>2016-05-26T15:34:26Z</time>
      </trkpt>
      <trkpt lat="43.13488" lon="5.75507">
        <ele>0.62</ele>
        <time>2016-05-26T15:35:10Z</time>
      </trkpt>
      <trkpt lat="43.13488" lon="5.75507">
        <ele>0.62</ele>
        <time>2016-05-26T15:35:13Z</time>
      </trkpt>
    </trkseg>
  </trk>
  <trk>
    <name><![CDATA[Tracé actuel: 27 MAI 2016 12:37]]></name>
    <trkseg>
  </trk>
</gpx>